<?xml version="1.0" encoding="UTF-8" standalone="no" ?><gpx xmlns="http://www.topografix.com/GPX/1/1" xmlns:gpxx="http://www.garmin.com/xmlschemas/GpxExtensions/v3" xmlns:wptx1="http://www.garmin.com/xmlschemas/WaypointExtension/v1" xmlns:gpxtpx="http://www.garmin.com/xmlschemas/TrackPointExtension/v1" creator="GuideVTT.com" version="1.1" xmlns:xsi="http://www.w3.org/2001/XMLSchema-instance" xsi:schemaLocation="http://www.topografix.com/GPX/1/1 http://www.topografix.com/GPX/1/1/gpx.xsd http://www.garmin.com/xmlschemas/GpxExtensions/v3 http://www8.garmin.com/xmlschemas/GpxExtensionsv3.xsd http://www.garmin.com/xmlschemas/WaypointExtension/v1 http://www8.garmin.com/xmlschemas/WaypointExtensionv1.xsd http://www.garmin.com/xmlschemas/TrackPointExtension/v1 http://www.garmin.com/xmlschemas/TrackPointExtensionv1.xsd">
<metadata><link href="http://www.garmin.com"><text>Garmin International</text></link><time>2013-06-22T15:13:50Z</time></metadata>
<trk><name>rp_2014_27.gpx</name><extensions><gpxx:TrackExtension><gpxx:DisplayColor>Cyan</gpxx:DisplayColor></gpxx:TrackExtension></extensions><trkseg>
<trkpt lat="46.6497706901" lon="6.3655300811"><ele></ele><time>2014-8-14T9:4:31Z</time></trkpt>
<trkpt lat="46.6497845203" lon="6.3655253872"><ele></ele><time>2014-8-14T9:4:34Z</time></trkpt>
<trkpt lat="46.6497913096" lon="6.3656019978"><ele></ele><time>2014-8-14T9:4:37Z</time></trkpt>
<trkpt lat="46.6497121006" lon="6.3657414727"><ele></ele><time>2014-8-14T9:4:40Z</time></trkpt>
<trkpt lat="46.6495722067" lon="6.3657336775"><ele></ele><time>2014-8-14T9:4:43Z</time></trkpt>
<trkpt lat="46.6493402794" lon="6.3656203542"><ele></ele><time>2014-8-14T9:4:46Z</time></trkpt>
<trkpt lat="46.6493177321" lon="6.3656093739"><ele></ele><time>2014-8-14T9:4:49Z</time></trkpt>
<trkpt lat="46.6492978670" lon="6.3655831385"><ele></ele><time>2014-8-14T9:4:52Z</time></trkpt>
<trkpt lat="46.6491699591" lon="6.3654987328"><ele></ele><time>2014-8-14T9:4:55Z</time></trkpt>
<trkpt lat="46.6489341762" lon="6.3653020933"><ele></ele><time>2014-8-14T9:4:58Z</time></trkpt>
<trkpt lat="46.6487069428" lon="6.3650497142"><ele></ele><time>2014-8-14T9:5:1Z</time></trkpt>
<trkpt lat="46.6484594252" lon="6.3646948244"><ele></ele><time>2014-8-14T9:5:4Z</time></trkpt>
<trkpt lat="46.6481306031" lon="6.3643147051"><ele></ele><time>2014-8-14T9:5:7Z</time></trkpt>
<trkpt lat="46.6478858516" lon="6.3639840391"><ele></ele><time>2014-8-14T9:5:10Z</time></trkpt>
<trkpt lat="46.6477002762" lon="6.3635579031"><ele></ele><time>2014-8-14T9:5:13Z</time></trkpt>
<trkpt lat="46.6475839354" lon="6.3630336151"><ele></ele><time>2014-8-14T9:5:16Z</time></trkpt>
<trkpt lat="46.6475119349" lon="6.3625786453"><ele></ele><time>2014-8-14T9:5:19Z</time></trkpt>
<trkpt lat="46.6473507509" lon="6.3622380048"><ele></ele><time>2014-8-14T9:5:22Z</time></trkpt>
<trkpt lat="46.6472499166" lon="6.3618474919"><ele></ele><time>2014-8-14T9:5:25Z</time></trkpt>
<trkpt lat="46.6471493337" lon="6.3615397923"><ele></ele><time>2014-8-14T9:5:28Z</time></trkpt>
<trkpt lat="46.6470891517" lon="6.3613290712"><ele></ele><time>2014-8-14T9:5:31Z</time></trkpt>
<trkpt lat="46.6469805222" lon="6.3610820565"><ele></ele><time>2014-8-14T9:5:34Z</time></trkpt>
<trkpt lat="46.6468520276" lon="6.3607808948"><ele></ele><time>2014-8-14T9:5:37Z</time></trkpt>
<trkpt lat="46.6467723157" lon="6.3605571818"><ele></ele><time>2014-8-14T9:5:40Z</time></trkpt>
<trkpt lat="46.6467351001" lon="6.3603458740"><ele></ele><time>2014-8-14T9:5:43Z</time></trkpt>
<trkpt lat="46.6467004828" lon="6.3601244241"><ele></ele><time>2014-8-14T9:5:46Z</time></trkpt>
<trkpt lat="46.6466787737" lon="6.3598478213"><ele></ele><time>2014-8-14T9:5:49Z</time></trkpt>
<trkpt lat="46.6466891672" lon="6.3596681971"><ele></ele><time>2014-8-14T9:5:52Z</time></trkpt>
<trkpt lat="46.6467009019" lon="6.3596487511"><ele></ele><time>2014-8-14T9:5:55Z</time></trkpt>
<trkpt lat="46.6467015725" lon="6.3596432190"><ele></ele><time>2014-8-14T9:5:58Z</time></trkpt>
<trkpt lat="46.6466637701" lon="6.3595371880"><ele></ele><time>2014-8-14T9:6:1Z</time></trkpt>
<trkpt lat="46.6466382891" lon="6.3593073562"><ele></ele><time>2014-8-14T9:6:4Z</time></trkpt>
<trkpt lat="46.6466336790" lon="6.3592349365"><ele></ele><time>2014-8-14T9:6:7Z</time></trkpt>
<trkpt lat="46.6465962119" lon="6.3589925319"><ele></ele><time>2014-8-14T9:6:10Z</time></trkpt>
<trkpt lat="46.6465952061" lon="6.3589263149"><ele></ele><time>2014-8-14T9:6:13Z</time></trkpt>
<trkpt lat="46.6465052683" lon="6.3585797232"><ele></ele><time>2014-8-14T9:6:16Z</time></trkpt>
<trkpt lat="46.6463826410" lon="6.3582676649"><ele></ele><time>2014-8-14T9:6:19Z</time></trkpt>
<trkpt lat="46.6461869236" lon="6.3581711054"><ele></ele><time>2014-8-14T9:6:22Z</time></trkpt>
<trkpt lat="46.6460828204" lon="6.3581498154"><ele></ele><time>2014-8-14T9:6:25Z</time></trkpt>
<trkpt lat="46.6460906994" lon="6.3580680918"><ele></ele><time>2014-8-14T9:6:28Z</time></trkpt>
<trkpt lat="46.6464114748" lon="6.3578011282"><ele></ele><time>2014-8-14T9:6:31Z</time></trkpt>
<trkpt lat="46.6467828769" lon="6.3575591426"><ele></ele><time>2014-8-14T9:6:34Z</time></trkpt>
<trkpt lat="46.6470124573" lon="6.3576945104"><ele></ele><time>2014-8-14T9:6:37Z</time></trkpt>
<trkpt lat="46.6470303945" lon="6.3577179797"><ele></ele><time>2014-8-14T9:6:40Z</time></trkpt>
<trkpt lat="46.6470768303" lon="6.3576057460"><ele></ele><time>2014-8-14T9:6:43Z</time></trkpt>
<trkpt lat="46.6469769180" lon="6.3571995590"><ele></ele><time>2014-8-14T9:6:46Z</time></trkpt>
<trkpt lat="46.6467302386" lon="6.3569636084"><ele></ele><time>2014-8-14T9:6:49Z</time></trkpt>
<trkpt lat="46.6464502830" lon="6.3569493592"><ele></ele><time>2014-8-14T9:6:52Z</time></trkpt>
<trkpt lat="46.6460864246" lon="6.3569989800"><ele></ele><time>2014-8-14T9:6:55Z</time></trkpt>
<trkpt lat="46.6458481271" lon="6.3568613492"><ele></ele><time>2014-8-14T9:6:58Z</time></trkpt>
<trkpt lat="46.6457181238" lon="6.3566389773"><ele></ele><time>2014-8-14T9:7:1Z</time></trkpt>
<trkpt lat="46.6455004457" lon="6.3563565910"><ele></ele><time>2014-8-14T9:7:4Z</time></trkpt>
<trkpt lat="46.6452173889" lon="6.3561828341"><ele></ele><time>2014-8-14T9:7:7Z</time></trkpt>
<trkpt lat="46.6452027205" lon="6.3561753742"><ele></ele><time>2014-8-14T9:7:10Z</time></trkpt>
<trkpt lat="46.6449882276" lon="6.3560466282"><ele></ele><time>2014-8-14T9:7:13Z</time></trkpt>
<trkpt lat="46.6447607428" lon="6.3559126016"><ele></ele><time>2014-8-14T9:7:16Z</time></trkpt>
<trkpt lat="46.6444869060" lon="6.3557136990"><ele></ele><time>2014-8-14T9:7:19Z</time></trkpt>
<trkpt lat="46.6442790348" lon="6.3555588853"><ele></ele><time>2014-8-14T9:7:22Z</time></trkpt>
<trkpt lat="46.6440364625" lon="6.3554007187"><ele></ele><time>2014-8-14T9:7:25Z</time></trkpt>
<trkpt lat="46.6437781323" lon="6.3552060071"><ele></ele><time>2014-8-14T9:7:28Z</time></trkpt>
<trkpt lat="46.6434965003" lon="6.3549903408"><ele></ele><time>2014-8-14T9:7:31Z</time></trkpt>
<trkpt lat="46.6431685165" lon="6.3548278995"><ele></ele><time>2014-8-14T9:7:34Z</time></trkpt>
<trkpt lat="46.6428892314" lon="6.3548080344"><ele></ele><time>2014-8-14T9:7:37Z</time></trkpt>
<trkpt lat="46.6424656939" lon="6.3547583297"><ele></ele><time>2014-8-14T9:7:40Z</time></trkpt>
<trkpt lat="46.6421964671" lon="6.3546944596"><ele></ele><time>2014-8-14T9:7:43Z</time></trkpt>
<trkpt lat="46.6416733526" lon="6.3547810446"><ele></ele><time>2014-8-14T9:7:46Z</time></trkpt>
<trkpt lat="46.6413009446" lon="6.3547481876"><ele></ele><time>2014-8-14T9:7:49Z</time></trkpt>
<trkpt lat="46.6412268486" lon="6.3547329325"><ele></ele><time>2014-8-14T9:7:52Z</time></trkpt>
<trkpt lat="46.6411468852" lon="6.3546969742"><ele></ele><time>2014-8-14T9:7:55Z</time></trkpt>
<trkpt lat="46.6408291273" lon="6.3545636181"><ele></ele><time>2014-8-14T9:7:58Z</time></trkpt>
<trkpt lat="46.6403305717" lon="6.3544717524"><ele></ele><time>2014-8-14T9:8:1Z</time></trkpt>
<trkpt lat="46.6401154082" lon="6.3543417491"><ele></ele><time>2014-8-14T9:8:4Z</time></trkpt>
<trkpt lat="46.6399332695" lon="6.3540914655"><ele></ele><time>2014-8-14T9:8:7Z</time></trkpt>
<trkpt lat="46.6397611890" lon="6.3537649065"><ele></ele><time>2014-8-14T9:8:10Z</time></trkpt>
<trkpt lat="46.6395011824" lon="6.3534676842"><ele></ele><time>2014-8-14T9:8:13Z</time></trkpt>
<trkpt lat="46.6392390803" lon="6.3533293828"><ele></ele><time>2014-8-14T9:8:16Z</time></trkpt>
<trkpt lat="46.6389859468" lon="6.3532899041"><ele></ele><time>2014-8-14T9:8:19Z</time></trkpt>
<trkpt lat="46.6387883853" lon="6.3532911614"><ele></ele><time>2014-8-14T9:8:22Z</time></trkpt>
<trkpt lat="46.6385418735" lon="6.3532428816"><ele></ele><time>2014-8-14T9:8:25Z</time></trkpt>
<trkpt lat="46.6382840462" lon="6.3530591503"><ele></ele><time>2014-8-14T9:8:28Z</time></trkpt>
<trkpt lat="46.6380216926" lon="6.3528814539"><ele></ele><time>2014-8-14T9:8:31Z</time></trkpt>
<trkpt lat="46.6378341056" lon="6.3527450804"><ele></ele><time>2014-8-14T9:8:34Z</time></trkpt>
<trkpt lat="46.6376374662" lon="6.3526251353"><ele></ele><time>2014-8-14T9:8:37Z</time></trkpt>
<trkpt lat="46.6374785453" lon="6.3525846507"><ele></ele><time>2014-8-14T9:8:40Z</time></trkpt>
<trkpt lat="46.6373487096" lon="6.3526047673"><ele></ele><time>2014-8-14T9:8:43Z</time></trkpt>
<trkpt lat="46.6371898726" lon="6.3526035100"><ele></ele><time>2014-8-14T9:8:46Z</time></trkpt>
<trkpt lat="46.6370451171" lon="6.3525823876"><ele></ele><time>2014-8-14T9:8:49Z</time></trkpt>
<trkpt lat="46.6370138526" lon="6.3525780290"><ele></ele><time>2014-8-14T9:8:52Z</time></trkpt>
<trkpt lat="46.6367873736" lon="6.3525434956"><ele></ele><time>2014-8-14T9:8:55Z</time></trkpt>
<trkpt lat="46.6365147941" lon="6.3525489438"><ele></ele><time>2014-8-14T9:8:58Z</time></trkpt>
<trkpt lat="46.6362983733" lon="6.3526152447"><ele></ele><time>2014-8-14T9:9:1Z</time></trkpt>
<trkpt lat="46.6361642629" lon="6.3527705614"><ele></ele><time>2014-8-14T9:9:4Z</time></trkpt>
<trkpt lat="46.6359267198" lon="6.3529929332"><ele></ele><time>2014-8-14T9:9:7Z</time></trkpt>
<trkpt lat="46.6357528791" lon="6.3529754989"><ele></ele><time>2014-8-14T9:9:10Z</time></trkpt>
<trkpt lat="46.6356170923" lon="6.3529319130"><ele></ele><time>2014-8-14T9:9:13Z</time></trkpt>
<trkpt lat="46.6355806310" lon="6.3529201783"><ele></ele><time>2014-8-14T9:9:16Z</time></trkpt>
<trkpt lat="46.6353915352" lon="6.3528314140"><ele></ele><time>2014-8-14T9:9:19Z</time></trkpt>
<trkpt lat="46.6352402419" lon="6.3527919352"><ele></ele><time>2014-8-14T9:9:22Z</time></trkpt>
<trkpt lat="46.6351236496" lon="6.3527520373"><ele></ele><time>2014-8-14T9:9:25Z</time></trkpt>
<trkpt lat="46.6349571850" lon="6.3526773546"><ele></ele><time>2014-8-14T9:9:28Z</time></trkpt>
<trkpt lat="46.6347576957" lon="6.3525583316"><ele></ele><time>2014-8-14T9:9:31Z</time></trkpt>
<trkpt lat="46.6346448753" lon="6.3524284121"><ele></ele><time>2014-8-14T9:9:34Z</time></trkpt>
<trkpt lat="46.6344921570" lon="6.3522150088"><ele></ele><time>2014-8-14T9:9:37Z</time></trkpt>
<trkpt lat="46.6343614832" lon="6.3519908767"><ele></ele><time>2014-8-14T9:9:40Z</time></trkpt>
<trkpt lat="46.6341559589" lon="6.3517544232"><ele></ele><time>2014-8-14T9:9:43Z</time></trkpt>
<trkpt lat="46.6339510214" lon="6.3514862023"><ele></ele><time>2014-8-14T9:9:46Z</time></trkpt>
<trkpt lat="46.6337895021" lon="6.3512622379"><ele></ele><time>2014-8-14T9:9:49Z</time></trkpt>
<trkpt lat="46.6335388832" lon="6.3510208391"><ele></ele><time>2014-8-14T9:9:52Z</time></trkpt>
<trkpt lat="46.6331635416" lon="6.3508156501"><ele></ele><time>2014-8-14T9:9:55Z</time></trkpt>
<trkpt lat="46.6327132657" lon="6.3506531250"><ele></ele><time>2014-8-14T9:9:58Z</time></trkpt>
<trkpt lat="46.6323020495" lon="6.3502885122"><ele></ele><time>2014-8-14T9:10:1Z</time></trkpt>
<trkpt lat="46.6319925897" lon="6.3496826682"><ele></ele><time>2014-8-14T9:10:4Z</time></trkpt>
<trkpt lat="46.6319217626" lon="6.3494803291"><ele></ele><time>2014-8-14T9:10:7Z</time></trkpt>
<trkpt lat="46.6317915078" lon="6.3493178040"><ele></ele><time>2014-8-14T9:10:10Z</time></trkpt>
<trkpt lat="46.6311204527" lon="6.3489008043"><ele></ele><time>2014-8-14T9:10:13Z</time></trkpt>
<trkpt lat="46.6309013497" lon="6.3488054182"><ele></ele><time>2014-8-14T9:10:16Z</time></trkpt>
<trkpt lat="46.6304463800" lon="6.3488435559"><ele></ele><time>2014-8-14T9:10:19Z</time></trkpt>
<trkpt lat="46.6298158932" lon="6.3487322442"><ele></ele><time>2014-8-14T9:10:22Z</time></trkpt>
<trkpt lat="46.6291958839" lon="6.3484408055"><ele></ele><time>2014-8-14T9:10:25Z</time></trkpt>
<trkpt lat="46.6283655725" lon="6.3481460139"><ele></ele><time>2014-8-14T9:10:28Z</time></trkpt>
<trkpt lat="46.6280420311" lon="6.3476384897"><ele></ele><time>2014-8-14T9:10:31Z</time></trkpt>
<trkpt lat="46.6279526800" lon="6.3471906446"><ele></ele><time>2014-8-14T9:10:34Z</time></trkpt>
<trkpt lat="46.6277852934" lon="6.3468765747"><ele></ele><time>2014-8-14T9:10:37Z</time></trkpt>
<trkpt lat="46.6272293217" lon="6.3462926913"><ele></ele><time>2014-8-14T9:10:40Z</time></trkpt>
<trkpt lat="46.6267082188" lon="6.3457154296"><ele></ele><time>2014-8-14T9:10:43Z</time></trkpt>
<trkpt lat="46.6261556838" lon="6.3451562729"><ele></ele><time>2014-8-14T9:10:46Z</time></trkpt>
<trkpt lat="46.6257412825" lon="6.3449310511"><ele></ele><time>2014-8-14T9:10:49Z</time></trkpt>
<trkpt lat="46.6255413741" lon="6.3445697073"><ele></ele><time>2014-8-14T9:10:52Z</time></trkpt>
<trkpt lat="46.6254359297" lon="6.3437692355"><ele></ele><time>2014-8-14T9:10:55Z</time></trkpt>
<trkpt lat="46.6252600774" lon="6.3429666683"><ele></ele><time>2014-8-14T9:10:58Z</time></trkpt>
<trkpt lat="46.6250767652" lon="6.3424012251"><ele></ele><time>2014-8-14T9:11:1Z</time></trkpt>
<trkpt lat="46.6250553075" lon="6.3423606567"><ele></ele><time>2014-8-14T9:11:4Z</time></trkpt>
<trkpt lat="46.6249327641" lon="6.3419890869"><ele></ele><time>2014-8-14T9:11:7Z</time></trkpt>
<trkpt lat="46.6246782057" lon="6.3417057786"><ele></ele><time>2014-8-14T9:11:10Z</time></trkpt>
<trkpt lat="46.6245114896" lon="6.3414790481"><ele></ele><time>2014-8-14T9:11:13Z</time></trkpt>
<trkpt lat="46.6244099848" lon="6.3411419280"><ele></ele><time>2014-8-14T9:11:16Z</time></trkpt>
<trkpt lat="46.6241716035" lon="6.3409221545"><ele></ele><time>2014-8-14T9:11:19Z</time></trkpt>
<trkpt lat="46.6239212360" lon="6.3407209888"><ele></ele><time>2014-8-14T9:11:22Z</time></trkpt>
<trkpt lat="46.6237533465" lon="6.3405940868"><ele></ele><time>2014-8-14T9:11:25Z</time></trkpt>
<trkpt lat="46.6235240176" lon="6.3404832780"><ele></ele><time>2014-8-14T9:11:28Z</time></trkpt>
<trkpt lat="46.6233249474" lon="6.3404945098"><ele></ele><time>2014-8-14T9:11:31Z</time></trkpt>
<trkpt lat="46.6231520288" lon="6.3404748961"><ele></ele><time>2014-8-14T9:11:34Z</time></trkpt>
<trkpt lat="46.6229673754" lon="6.3403840363"><ele></ele><time>2014-8-14T9:11:37Z</time></trkpt>
<trkpt lat="46.6228404734" lon="6.3402543683"><ele></ele><time>2014-8-14T9:11:40Z</time></trkpt>
<trkpt lat="46.6226776969" lon="6.3399609178"><ele></ele><time>2014-8-14T9:11:43Z</time></trkpt>
<trkpt lat="46.6225613561" lon="6.3395609334"><ele></ele><time>2014-8-14T9:11:46Z</time></trkpt>
<trkpt lat="46.6224375553" lon="6.3391233142"><ele></ele><time>2014-8-14T9:11:49Z</time></trkpt>
<trkpt lat="46.6222127527" lon="6.3387556002"><ele></ele><time>2014-8-14T9:11:52Z</time></trkpt>
<trkpt lat="46.6220536642" lon="6.3385442086"><ele></ele><time>2014-8-14T9:11:55Z</time></trkpt>
<trkpt lat="46.6218856908" lon="6.3382442202"><ele></ele><time>2014-8-14T9:11:58Z</time></trkpt>
<trkpt lat="46.6218617186" lon="6.3381909952"><ele></ele><time>2014-8-14T9:12:1Z</time></trkpt>
<trkpt lat="46.6218541749" lon="6.3381803501"><ele></ele><time>2014-8-14T9:12:4Z</time></trkpt>
<trkpt lat="46.6218313761" lon="6.3381845411"><ele></ele><time>2014-8-14T9:12:7Z</time></trkpt>
<trkpt lat="46.6218302026" lon="6.3381930068"><ele></ele><time>2014-8-14T9:12:10Z</time></trkpt>
<trkpt lat="46.6218292806" lon="6.3381918333"><ele></ele><time>2014-8-14T9:12:13Z</time></trkpt>
<trkpt lat="46.6218223237" lon="6.3381860498"><ele></ele><time>2014-8-14T9:12:16Z</time></trkpt>
<trkpt lat="46.6218129359" lon="6.3381832000"><ele></ele><time>2014-8-14T9:12:19Z</time></trkpt>
<trkpt lat="46.6217588726" lon="6.3381420448"><ele></ele><time>2014-8-14T9:12:22Z</time></trkpt>
<trkpt lat="46.6217378341" lon="6.3381159771"><ele></ele><time>2014-8-14T9:12:25Z</time></trkpt>
<trkpt lat="46.6216235887" lon="6.3379498478"><ele></ele><time>2014-8-14T9:12:28Z</time></trkpt>
<trkpt lat="46.6215047333" lon="6.3377827127"><ele></ele><time>2014-8-14T9:12:31Z</time></trkpt>
<trkpt lat="46.6213653423" lon="6.3376306649"><ele></ele><time>2014-8-14T9:12:34Z</time></trkpt>
<trkpt lat="46.6212391946" lon="6.3375327643"><ele></ele><time>2014-8-14T9:12:37Z</time></trkpt>
<trkpt lat="46.6211146396" lon="6.3373960555"><ele></ele><time>2014-8-14T9:12:40Z</time></trkpt>
<trkpt lat="46.6210836265" lon="6.3373558223"><ele></ele><time>2014-8-14T9:12:43Z</time></trkpt>
<trkpt lat="46.6209505219" lon="6.3371717557"><ele></ele><time>2014-8-14T9:12:46Z</time></trkpt>
<trkpt lat="46.6208423115" lon="6.3369849231"><ele></ele><time>2014-8-14T9:12:49Z</time></trkpt>
<trkpt lat="46.6208000667" lon="6.3368896209"><ele></ele><time>2014-8-14T9:12:52Z</time></trkpt>
<trkpt lat="46.6207595821" lon="6.3366608787"><ele></ele><time>2014-8-14T9:12:55Z</time></trkpt>
<trkpt lat="46.6206988972" lon="6.3363740500"><ele></ele><time>2014-8-14T9:12:58Z</time></trkpt>
<trkpt lat="46.6205952130" lon="6.3361928333"><ele></ele><time>2014-8-14T9:13:1Z</time></trkpt>
<trkpt lat="46.6204372980" lon="6.3359619118"><ele></ele><time>2014-8-14T9:13:4Z</time></trkpt>
<trkpt lat="46.6202571709" lon="6.3357309066"><ele></ele><time>2014-8-14T9:13:7Z</time></trkpt>
<trkpt lat="46.6201378964" lon="6.3355000690"><ele></ele><time>2014-8-14T9:13:10Z</time></trkpt>
<trkpt lat="46.6200359724" lon="6.3352964725"><ele></ele><time>2014-8-14T9:13:13Z</time></trkpt>
<trkpt lat="46.6198906302" lon="6.3350690715"><ele></ele><time>2014-8-14T9:13:16Z</time></trkpt>
<trkpt lat="46.6197665781" lon="6.3349255733"><ele></ele><time>2014-8-14T9:13:19Z</time></trkpt>
<trkpt lat="46.6196197271" lon="6.3347734418"><ele></ele><time>2014-8-14T9:13:22Z</time></trkpt>
<trkpt lat="46.6194794141" lon="6.3345026225"><ele></ele><time>2014-8-14T9:13:25Z</time></trkpt>
<trkpt lat="46.6192975268" lon="6.3342213258"><ele></ele><time>2014-8-14T9:13:28Z</time></trkpt>
<trkpt lat="46.6190184094" lon="6.3339463994"><ele></ele><time>2014-8-14T9:13:31Z</time></trkpt>
<trkpt lat="46.6189614125" lon="6.3338811882"><ele></ele><time>2014-8-14T9:13:34Z</time></trkpt>
<trkpt lat="46.6188350134" lon="6.3336944394"><ele></ele><time>2014-8-14T9:13:37Z</time></trkpt>
<trkpt lat="46.6187556367" lon="6.3331839815"><ele></ele><time>2014-8-14T9:13:40Z</time></trkpt>
<trkpt lat="46.6185810417" lon="6.3328644633"><ele></ele><time>2014-8-14T9:13:43Z</time></trkpt>
<trkpt lat="46.6183745116" lon="6.3325653970"><ele></ele><time>2014-8-14T9:13:46Z</time></trkpt>
<trkpt lat="46.6182057001" lon="6.3322695997"><ele></ele><time>2014-8-14T9:13:49Z</time></trkpt>
<trkpt lat="46.6179626249" lon="6.3321226649"><ele></ele><time>2014-8-14T9:13:52Z</time></trkpt>
<trkpt lat="46.6177348886" lon="6.3321359921"><ele></ele><time>2014-8-14T9:13:55Z</time></trkpt>
<trkpt lat="46.6175006982" lon="6.3322339766"><ele></ele><time>2014-8-14T9:13:58Z</time></trkpt>
<trkpt lat="46.6172357462" lon="6.3323823363"><ele></ele><time>2014-8-14T9:14:1Z</time></trkpt>
<trkpt lat="46.6172275320" lon="6.3323902152"><ele></ele><time>2014-8-14T9:14:4Z</time></trkpt>
<trkpt lat="46.6170933377" lon="6.3323913049"><ele></ele><time>2014-8-14T9:14:7Z</time></trkpt>
<trkpt lat="46.6168512683" lon="6.3323037140"><ele></ele><time>2014-8-14T9:14:10Z</time></trkpt>
<trkpt lat="46.6167643480" lon="6.3322260976"><ele></ele><time>2014-8-14T9:14:13Z</time></trkpt>
<trkpt lat="46.6167403758" lon="6.3322477229"><ele></ele><time>2014-8-14T9:14:16Z</time></trkpt>
<trkpt lat="46.6167287249" lon="6.3322498184"><ele></ele><time>2014-8-14T9:14:19Z</time></trkpt>
<trkpt lat="46.6167515237" lon="6.3322860282"><ele></ele><time>2014-8-14T9:14:22Z</time></trkpt>
<trkpt lat="46.6167513561" lon="6.3322816696"><ele></ele><time>2014-8-14T9:14:25Z</time></trkpt>
<trkpt lat="46.6167576425" lon="6.3322700188"><ele></ele><time>2014-8-14T9:14:28Z</time></trkpt>
<trkpt lat="46.6167559661" lon="6.3322787359"><ele></ele><time>2014-8-14T9:14:31Z</time></trkpt>
<trkpt lat="46.6167528648" lon="6.3322654925"><ele></ele><time>2014-8-14T9:14:34Z</time></trkpt>
<trkpt lat="46.6167428903" lon="6.3322545961"><ele></ele><time>2014-8-14T9:14:37Z</time></trkpt>
<trkpt lat="46.6167323291" lon="6.3322367426"><ele></ele><time>2014-8-14T9:14:40Z</time></trkpt>
<trkpt lat="46.6167149786" lon="6.3322132733"><ele></ele><time>2014-8-14T9:14:43Z</time></trkpt>
<trkpt lat="46.6166585684" lon="6.3321410213"><ele></ele><time>2014-8-14T9:14:46Z</time></trkpt>
<trkpt lat="46.6164698079" lon="6.3319929969"><ele></ele><time>2014-8-14T9:14:49Z</time></trkpt>
<trkpt lat="46.6162270680" lon="6.3318322320"><ele></ele><time>2014-8-14T9:14:52Z</time></trkpt>
<trkpt lat="46.6160476115" lon="6.3316715509"><ele></ele><time>2014-8-14T9:14:55Z</time></trkpt>
<trkpt lat="46.6158637125" lon="6.3314514421"><ele></ele><time>2014-8-14T9:14:58Z</time></trkpt>
<trkpt lat="46.6156973317" lon="6.3312153239"><ele></ele><time>2014-8-14T9:15:1Z</time></trkpt>
<trkpt lat="46.6155265924" lon="6.3309539761"><ele></ele><time>2014-8-14T9:15:4Z</time></trkpt>
<trkpt lat="46.6153664142" lon="6.3306306023"><ele></ele><time>2014-8-14T9:15:7Z</time></trkpt>
<trkpt lat="46.6152305435" lon="6.3302597031"><ele></ele><time>2014-8-14T9:15:10Z</time></trkpt>
<trkpt lat="46.6150346585" lon="6.3300312962"><ele></ele><time>2014-8-14T9:15:13Z</time></trkpt>
<trkpt lat="46.6148184054" lon="6.3297857065"><ele></ele><time>2014-8-14T9:15:16Z</time></trkpt>
<trkpt lat="46.6146661062" lon="6.3294797670"><ele></ele><time>2014-8-14T9:15:19Z</time></trkpt>
<trkpt lat="46.6145267151" lon="6.3291466702"><ele></ele><time>2014-8-14T9:15:22Z</time></trkpt>
<trkpt lat="46.6143305786" lon="6.3288199436"><ele></ele><time>2014-8-14T9:15:25Z</time></trkpt>
<trkpt lat="46.6140662134" lon="6.3285232242"><ele></ele><time>2014-8-14T9:15:28Z</time></trkpt>
<trkpt lat="46.6137082223" lon="6.3282919675"><ele></ele><time>2014-8-14T9:15:31Z</time></trkpt>
<trkpt lat="46.6132749617" lon="6.3280735351"><ele></ele><time>2014-8-14T9:15:34Z</time></trkpt>
<trkpt lat="46.6128794197" lon="6.3278204016"><ele></ele><time>2014-8-14T9:15:37Z</time></trkpt>
<trkpt lat="46.6124392860" lon="6.3275504205"><ele></ele><time>2014-8-14T9:15:40Z</time></trkpt>
<trkpt lat="46.6122895852" lon="6.3274401985"><ele></ele><time>2014-8-14T9:15:43Z</time></trkpt>
<trkpt lat="46.6119317617" lon="6.3269532938"><ele></ele><time>2014-8-14T9:15:46Z</time></trkpt>
<trkpt lat="46.6117538977" lon="6.3264469430"><ele></ele><time>2014-8-14T9:15:49Z</time></trkpt>
<trkpt lat="46.6116124950" lon="6.3260842580"><ele></ele><time>2014-8-14T9:15:52Z</time></trkpt>
<trkpt lat="46.6114539094" lon="6.3256478123"><ele></ele><time>2014-8-14T9:15:55Z</time></trkpt>
<trkpt lat="46.6113718506" lon="6.3252937607"><ele></ele><time>2014-8-14T9:15:58Z</time></trkpt>
<trkpt lat="46.6113365628" lon="6.3249069359"><ele></ele><time>2014-8-14T9:16:1Z</time></trkpt>
<trkpt lat="46.6113419272" lon="6.3245643675"><ele></ele><time>2014-8-14T9:16:4Z</time></trkpt>
<trkpt lat="46.6113108303" lon="6.3242404908"><ele></ele><time>2014-8-14T9:16:7Z</time></trkpt>
<trkpt lat="46.6112528276" lon="6.3239439391"><ele></ele><time>2014-8-14T9:16:10Z</time></trkpt>
<trkpt lat="46.6110613011" lon="6.3237369899"><ele></ele><time>2014-8-14T9:16:13Z</time></trkpt>
<trkpt lat="46.6108609736" lon="6.3234994467"><ele></ele><time>2014-8-14T9:16:16Z</time></trkpt>
<trkpt lat="46.6106932517" lon="6.3232370093"><ele></ele><time>2014-8-14T9:16:19Z</time></trkpt>
<trkpt lat="46.6104852967" lon="6.3229052536"><ele></ele><time>2014-8-14T9:16:22Z</time></trkpt>
<trkpt lat="46.6102985479" lon="6.3225242123"><ele></ele><time>2014-8-14T9:16:25Z</time></trkpt>
<trkpt lat="46.6103107855" lon="6.3220926281"><ele></ele><time>2014-8-14T9:16:28Z</time></trkpt>
<trkpt lat="46.6103866417" lon="6.3216881175"><ele></ele><time>2014-8-14T9:16:31Z</time></trkpt>
<trkpt lat="46.6106366739" lon="6.3215013687"><ele></ele><time>2014-8-14T9:16:34Z</time></trkpt>
<trkpt lat="46.6109047271" lon="6.3216902129"><ele></ele><time>2014-8-14T9:16:37Z</time></trkpt>
<trkpt lat="46.6110897157" lon="6.3218472898"><ele></ele><time>2014-8-14T9:16:40Z</time></trkpt>
<trkpt lat="46.6111706011" lon="6.3217814080"><ele></ele><time>2014-8-14T9:16:43Z</time></trkpt>
<trkpt lat="46.6112407576" lon="6.3215727825"><ele></ele><time>2014-8-14T9:16:46Z</time></trkpt>
<trkpt lat="46.6111732833" lon="6.3213840220"><ele></ele><time>2014-8-14T9:16:49Z</time></trkpt>
<trkpt lat="46.6110899672" lon="6.3212408591"><ele></ele><time>2014-8-14T9:16:52Z</time></trkpt>
<trkpt lat="46.6109782364" lon="6.3210567087"><ele></ele><time>2014-8-14T9:16:55Z</time></trkpt>
<trkpt lat="46.6108786594" lon="6.3209122885"><ele></ele><time>2014-8-14T9:16:58Z</time></trkpt>
<trkpt lat="46.6108600516" lon="6.3208935969"><ele></ele><time>2014-8-14T9:17:1Z</time></trkpt>
<trkpt lat="46.6107519250" lon="6.3207699638"><ele></ele><time>2014-8-14T9:17:4Z</time></trkpt>
<trkpt lat="46.6106583830" lon="6.3206422236"><ele></ele><time>2014-8-14T9:17:7Z</time></trkpt>
<trkpt lat="46.6105469875" lon="6.3204708975"><ele></ele><time>2014-8-14T9:17:10Z</time></trkpt>
<trkpt lat="46.6104654316" lon="6.3202733360"><ele></ele><time>2014-8-14T9:17:13Z</time></trkpt>
<trkpt lat="46.6103284713" lon="6.3200977352"><ele></ele><time>2014-8-14T9:17:16Z</time></trkpt>
<trkpt lat="46.6101848055" lon="6.3199131656"><ele></ele><time>2014-8-14T9:17:19Z</time></trkpt>
<trkpt lat="46.6100472584" lon="6.3197829947"><ele></ele><time>2014-8-14T9:17:22Z</time></trkpt>
<trkpt lat="46.6099328455" lon="6.3196226489"><ele></ele><time>2014-8-14T9:17:25Z</time></trkpt>
<trkpt lat="46.6098208632" lon="6.3193773106"><ele></ele><time>2014-8-14T9:17:28Z</time></trkpt>
<trkpt lat="46.6097366251" lon="6.3191414438"><ele></ele><time>2014-8-14T9:17:31Z</time></trkpt>
<trkpt lat="46.6095669754" lon="6.3189634122"><ele></ele><time>2014-8-14T9:17:34Z</time></trkpt>
<trkpt lat="46.6093350481" lon="6.3189802598"><ele></ele><time>2014-8-14T9:17:37Z</time></trkpt>
<trkpt lat="46.6091535799" lon="6.3190308865"><ele></ele><time>2014-8-14T9:17:40Z</time></trkpt>
<trkpt lat="46.6090515722" lon="6.3190237619"><ele></ele><time>2014-8-14T9:17:43Z</time></trkpt>
<trkpt lat="46.6089384165" lon="6.3190031424"><ele></ele><time>2014-8-14T9:17:46Z</time></trkpt>
<trkpt lat="46.6087601334" lon="6.3188712951"><ele></ele><time>2014-8-14T9:17:49Z</time></trkpt>
<trkpt lat="46.6086236760" lon="6.3186174911"><ele></ele><time>2014-8-14T9:17:52Z</time></trkpt>
<trkpt lat="46.6085914057" lon="6.3185526151"><ele></ele><time>2014-8-14T9:17:55Z</time></trkpt>
<trkpt lat="46.6085649189" lon="6.3185401261"><ele></ele><time>2014-8-14T9:17:58Z</time></trkpt>
<trkpt lat="46.6085551120" lon="6.3185148127"><ele></ele><time>2014-8-14T9:18:1Z</time></trkpt>
<trkpt lat="46.6085536871" lon="6.3185150642"><ele></ele><time>2014-8-14T9:18:4Z</time></trkpt>
<trkpt lat="46.6085531004" lon="6.3185122982"><ele></ele><time>2014-8-14T9:18:7Z</time></trkpt>
<trkpt lat="46.6084702872" lon="6.3183799479"><ele></ele><time>2014-8-14T9:18:10Z</time></trkpt>
<trkpt lat="46.6084001306" lon="6.3183061033"><ele></ele><time>2014-8-14T9:18:13Z</time></trkpt>
<trkpt lat="46.6083102766" lon="6.3181974739"><ele></ele><time>2014-8-14T9:18:16Z</time></trkpt>
<trkpt lat="46.6082110349" lon="6.3180968910"><ele></ele><time>2014-8-14T9:18:19Z</time></trkpt>
<trkpt lat="46.6081917565" lon="6.3180647884"><ele></ele><time>2014-8-14T9:18:22Z</time></trkpt>
<trkpt lat="46.6080776788" lon="6.3177925441"><ele></ele><time>2014-8-14T9:18:25Z</time></trkpt>
<trkpt lat="46.6079257149" lon="6.3174768817"><ele></ele><time>2014-8-14T9:18:28Z</time></trkpt>
<trkpt lat="46.6077535506" lon="6.3171951659"><ele></ele><time>2014-8-14T9:18:31Z</time></trkpt>
<trkpt lat="46.6075093020" lon="6.3167643361"><ele></ele><time>2014-8-14T9:18:34Z</time></trkpt>
<trkpt lat="46.6072891094" lon="6.3163860608"><ele></ele><time>2014-8-14T9:18:37Z</time></trkpt>
<trkpt lat="46.6071409173" lon="6.3162349351"><ele></ele><time>2014-8-14T9:18:40Z</time></trkpt>
<trkpt lat="46.6070016101" lon="6.3159931172"><ele></ele><time>2014-8-14T9:18:43Z</time></trkpt>
<trkpt lat="46.6068245005" lon="6.3157254830"><ele></ele><time>2014-8-14T9:18:46Z</time></trkpt>
<trkpt lat="46.6067881230" lon="6.3156582601"><ele></ele><time>2014-8-14T9:18:49Z</time></trkpt>
<trkpt lat="46.6066809185" lon="6.3153488003"><ele></ele><time>2014-8-14T9:18:52Z</time></trkpt>
<trkpt lat="46.6065000370" lon="6.3148660865"><ele></ele><time>2014-8-14T9:18:55Z</time></trkpt>
<trkpt lat="46.6063199937" lon="6.3145189919"><ele></ele><time>2014-8-14T9:18:58Z</time></trkpt>
<trkpt lat="46.6062764078" lon="6.3144723885"><ele></ele><time>2014-8-14T9:19:1Z</time></trkpt>
<trkpt lat="46.6062750667" lon="6.3144613244"><ele></ele><time>2014-8-14T9:19:4Z</time></trkpt>
<trkpt lat="46.6062760726" lon="6.3144744840"><ele></ele><time>2014-8-14T9:19:7Z</time></trkpt>
<trkpt lat="46.6062625777" lon="6.3144961931"><ele></ele><time>2014-8-14T9:19:10Z</time></trkpt>
<trkpt lat="46.6062645055" lon="6.3144849613"><ele></ele><time>2014-8-14T9:19:13Z</time></trkpt>
<trkpt lat="46.6061775014" lon="6.3143579755"><ele></ele><time>2014-8-14T9:19:16Z</time></trkpt>
<trkpt lat="46.6059979610" lon="6.3140036725"><ele></ele><time>2014-8-14T9:19:19Z</time></trkpt>
<trkpt lat="46.6059472505" lon="6.3138973899"><ele></ele><time>2014-8-14T9:19:22Z</time></trkpt>
<trkpt lat="46.6058458295" lon="6.3137261476"><ele></ele><time>2014-8-14T9:19:25Z</time></trkpt>
<trkpt lat="46.6058215220" lon="6.3136770297"><ele></ele><time>2014-8-14T9:19:28Z</time></trkpt>
<trkpt lat="46.6055616830" lon="6.3132057991"><ele></ele><time>2014-8-14T9:19:31Z</time></trkpt>
<trkpt lat="46.6053140815" lon="6.3127882965"><ele></ele><time>2014-8-14T9:19:34Z</time></trkpt>
<trkpt lat="46.6052034404" lon="6.3126362488"><ele></ele><time>2014-8-14T9:19:37Z</time></trkpt>
<trkpt lat="46.6051460244" lon="6.3126164675"><ele></ele><time>2014-8-14T9:19:40Z</time></trkpt>
<trkpt lat="46.6049866844" lon="6.3126640767"><ele></ele><time>2014-8-14T9:19:43Z</time></trkpt>
<trkpt lat="46.6049609520" lon="6.3126672618"><ele></ele><time>2014-8-14T9:19:46Z</time></trkpt>
<trkpt lat="46.6047399212" lon="6.3127061538"><ele></ele><time>2014-8-14T9:19:49Z</time></trkpt>
<trkpt lat="46.6046410985" lon="6.3126296271"><ele></ele><time>2014-8-14T9:19:52Z</time></trkpt>
<trkpt lat="46.6045902204" lon="6.3125741389"><ele></ele><time>2014-8-14T9:19:55Z</time></trkpt>
<trkpt lat="46.6045052279" lon="6.3124018069"><ele></ele><time>2014-8-14T9:19:58Z</time></trkpt>
<trkpt lat="46.6044845246" lon="6.3123726379"><ele></ele><time>2014-8-14T9:20:1Z</time></trkpt>
<trkpt lat="46.6043080017" lon="6.3121691253"><ele></ele><time>2014-8-14T9:20:4Z</time></trkpt>
<trkpt lat="46.6041180678" lon="6.3120320812"><ele></ele><time>2014-8-14T9:20:7Z</time></trkpt>
<trkpt lat="46.6039145552" lon="6.3119201828"><ele></ele><time>2014-8-14T9:20:10Z</time></trkpt>
<trkpt lat="46.6036785208" lon="6.3117468450"><ele></ele><time>2014-8-14T9:20:13Z</time></trkpt>
<trkpt lat="46.6034766845" lon="6.3116154168"><ele></ele><time>2014-8-14T9:20:16Z</time></trkpt>
<trkpt lat="46.6032634489" lon="6.3115097210"><ele></ele><time>2014-8-14T9:20:19Z</time></trkpt>
<trkpt lat="46.6031306796" lon="6.3112896122"><ele></ele><time>2014-8-14T9:20:22Z</time></trkpt>
<trkpt lat="46.6029736865" lon="6.3110286836"><ele></ele><time>2014-8-14T9:20:25Z</time></trkpt>
<trkpt lat="46.6027721856" lon="6.3108529150"><ele></ele><time>2014-8-14T9:20:28Z</time></trkpt>
<trkpt lat="46.6025096644" lon="6.3106452953"><ele></ele><time>2014-8-14T9:20:31Z</time></trkpt>
<trkpt lat="46.6024952475" lon="6.3106419425"><ele></ele><time>2014-8-14T9:20:34Z</time></trkpt>
<trkpt lat="46.6023245919" lon="6.3104530983"><ele></ele><time>2014-8-14T9:20:37Z</time></trkpt>
<trkpt lat="46.6021991987" lon="6.3102179859"><ele></ele><time>2014-8-14T9:20:40Z</time></trkpt>
<trkpt lat="46.6020574607" lon="6.3099501841"><ele></ele><time>2014-8-14T9:20:43Z</time></trkpt>
<trkpt lat="46.6018969472" lon="6.3097221125"><ele></ele><time>2014-8-14T9:20:46Z</time></trkpt>
<trkpt lat="46.6016961168" lon="6.3094345294"><ele></ele><time>2014-8-14T9:20:49Z</time></trkpt>
<trkpt lat="46.6015227791" lon="6.3091950584"><ele></ele><time>2014-8-14T9:20:52Z</time></trkpt>
<trkpt lat="46.6013427358" lon="6.3090150151"><ele></ele><time>2014-8-14T9:20:55Z</time></trkpt>
<trkpt lat="46.6011369601" lon="6.3088185433"><ele></ele><time>2014-8-14T9:20:58Z</time></trkpt>
<trkpt lat="46.6010093037" lon="6.3084556907"><ele></ele><time>2014-8-14T9:21:1Z</time></trkpt>
<trkpt lat="46.6008317750" lon="6.3081053272"><ele></ele><time>2014-8-14T9:21:4Z</time></trkpt>
<trkpt lat="46.6006846726" lon="6.3078564685"><ele></ele><time>2014-8-14T9:21:7Z</time></trkpt>
<trkpt lat="46.6005410906" lon="6.3076502737"><ele></ele><time>2014-8-14T9:21:10Z</time></trkpt>
<trkpt lat="46.6004746221" lon="6.3075533789"><ele></ele><time>2014-8-14T9:21:13Z</time></trkpt>
<trkpt lat="46.6004781425" lon="6.3075568993"><ele></ele><time>2014-8-14T9:21:16Z</time></trkpt>
<trkpt lat="46.6004794836" lon="6.3075600006"><ele></ele><time>2014-8-14T9:21:19Z</time></trkpt>
<trkpt lat="46.6004716046" lon="6.3075806201"><ele></ele><time>2014-8-14T9:21:22Z</time></trkpt>
<trkpt lat="46.6004730295" lon="6.3075973839"><ele></ele><time>2014-8-14T9:21:25Z</time></trkpt>
<trkpt lat="46.6004675813" lon="6.3076019939"><ele></ele><time>2014-8-14T9:21:28Z</time></trkpt>
<trkpt lat="46.6004814953" lon="6.3076325040"><ele></ele><time>2014-8-14T9:21:31Z</time></trkpt>
<trkpt lat="46.6004729457" lon="6.3076231163"><ele></ele><time>2014-8-14T9:21:34Z</time></trkpt>
<trkpt lat="46.6004654020" lon="6.3075986411"><ele></ele><time>2014-8-14T9:21:37Z</time></trkpt>
<trkpt lat="46.6004550084" lon="6.3075830508"><ele></ele><time>2014-8-14T9:21:40Z</time></trkpt>
<trkpt lat="46.6004540026" lon="6.3075681310"><ele></ele><time>2014-8-14T9:21:43Z</time></trkpt>
<trkpt lat="46.6002753004" lon="6.3073056098"><ele></ele><time>2014-8-14T9:21:46Z</time></trkpt>
<trkpt lat="46.6002010368" lon="6.3071979862"><ele></ele><time>2014-8-14T9:21:49Z</time></trkpt>
<trkpt lat="46.6001209896" lon="6.3070185296"><ele></ele><time>2014-8-14T9:21:52Z</time></trkpt>
<trkpt lat="46.6000751406" lon="6.3069350459"><ele></ele><time>2014-8-14T9:21:55Z</time></trkpt>
<trkpt lat="46.5999469813" lon="6.3066961616"><ele></ele><time>2014-8-14T9:21:58Z</time></trkpt>
<trkpt lat="46.5996921714" lon="6.3064577803"><ele></ele><time>2014-8-14T9:22:1Z</time></trkpt>
<trkpt lat="46.5992898401" lon="6.3060530182"><ele></ele><time>2014-8-14T9:22:4Z</time></trkpt>
<trkpt lat="46.5990618523" lon="6.3057065941"><ele></ele><time>2014-8-14T9:22:7Z</time></trkpt>
<trkpt lat="46.5988900233" lon="6.3053219486"><ele></ele><time>2014-8-14T9:22:10Z</time></trkpt>
<trkpt lat="46.5987323597" lon="6.3050927874"><ele></ele><time>2014-8-14T9:22:13Z</time></trkpt>
<trkpt lat="46.5985211357" lon="6.3048355468"><ele></ele><time>2014-8-14T9:22:16Z</time></trkpt>
<trkpt lat="46.5984059684" lon="6.3044852670"><ele></ele><time>2014-8-14T9:22:19Z</time></trkpt>
<trkpt lat="46.5982257575" lon="6.3042109273"><ele></ele><time>2014-8-14T9:22:22Z</time></trkpt>
<trkpt lat="46.5980951674" lon="6.3038914092"><ele></ele><time>2014-8-14T9:22:25Z</time></trkpt>
<trkpt lat="46.5979373362" lon="6.3035102002"><ele></ele><time>2014-8-14T9:22:28Z</time></trkpt>
<trkpt lat="46.5977035649" lon="6.3030981459"><ele></ele><time>2014-8-14T9:22:31Z</time></trkpt>
<trkpt lat="46.5975033212" lon="6.3027958106"><ele></ele><time>2014-8-14T9:22:34Z</time></trkpt>
<trkpt lat="46.5974289738" lon="6.3026591856"><ele></ele><time>2014-8-14T9:22:37Z</time></trkpt>
<trkpt lat="46.5974335838" lon="6.3026632927"><ele></ele><time>2014-8-14T9:22:40Z</time></trkpt>
<trkpt lat="46.5974332485" lon="6.3026714232"><ele></ele><time>2014-8-14T9:22:43Z</time></trkpt>
<trkpt lat="46.5972656105" lon="6.3025227282"><ele></ele><time>2014-8-14T9:22:46Z</time></trkpt>
<trkpt lat="46.5971329249" lon="6.3022918068"><ele></ele><time>2014-8-14T9:22:49Z</time></trkpt>
<trkpt lat="46.5969719924" lon="6.3020477258"><ele></ele><time>2014-8-14T9:22:52Z</time></trkpt>
<trkpt lat="46.5968091320" lon="6.3018340711"><ele></ele><time>2014-8-14T9:22:55Z</time></trkpt>
<trkpt lat="46.5966042783" lon="6.3015473261"><ele></ele><time>2014-8-14T9:22:58Z</time></trkpt>
<trkpt lat="46.5965569206" lon="6.3012747467"><ele></ele><time>2014-8-14T9:23:1Z</time></trkpt>
<trkpt lat="46.5964903682" lon="6.3010239601"><ele></ele><time>2014-8-14T9:23:4Z</time></trkpt>
<trkpt lat="46.5964865126" lon="6.3009994850"><ele></ele><time>2014-8-14T9:23:7Z</time></trkpt>
<trkpt lat="46.5964340419" lon="6.3009062782"><ele></ele><time>2014-8-14T9:23:10Z</time></trkpt>
<trkpt lat="46.5963268373" lon="6.3006565813"><ele></ele><time>2014-8-14T9:23:13Z</time></trkpt>
<trkpt lat="46.5962471254" lon="6.3004630432"><ele></ele><time>2014-8-14T9:23:16Z</time></trkpt>
<trkpt lat="46.5961922240" lon="6.3004164398"><ele></ele><time>2014-8-14T9:23:19Z</time></trkpt>
<trkpt lat="46.5959652420" lon="6.3001933973"><ele></ele><time>2014-8-14T9:23:22Z</time></trkpt>
<trkpt lat="46.5957022179" lon="6.2998870388"><ele></ele><time>2014-8-14T9:23:25Z</time></trkpt>
<trkpt lat="46.5955856256" lon="6.2997515034"><ele></ele><time>2014-8-14T9:23:28Z</time></trkpt>
<trkpt lat="46.5954164788" lon="6.2995059974"><ele></ele><time>2014-8-14T9:23:31Z</time></trkpt>
<trkpt lat="46.5953352582" lon="6.2990828790"><ele></ele><time>2014-8-14T9:23:34Z</time></trkpt>
<trkpt lat="46.5954025649" lon="6.2986299209"><ele></ele><time>2014-8-14T9:23:37Z</time></trkpt>
<trkpt lat="46.5952143911" lon="6.2981954031"><ele></ele><time>2014-8-14T9:23:40Z</time></trkpt>
<trkpt lat="46.5949502774" lon="6.2977718655"><ele></ele><time>2014-8-14T9:23:43Z</time></trkpt>
<trkpt lat="46.5944386460" lon="6.2970330007"><ele></ele><time>2014-8-14T9:23:46Z</time></trkpt>
<trkpt lat="46.5943997540" lon="6.2969348487"><ele></ele><time>2014-8-14T9:23:49Z</time></trkpt>
<trkpt lat="46.5940284356" lon="6.2963036075"><ele></ele><time>2014-8-14T9:23:52Z</time></trkpt>
<trkpt lat="46.5938932355" lon="6.2961287610"><ele></ele><time>2014-8-14T9:23:55Z</time></trkpt>
<trkpt lat="46.5937336441" lon="6.2958719395"><ele></ele><time>2014-8-14T9:23:58Z</time></trkpt>
<trkpt lat="46.5937291179" lon="6.2958647311"><ele></ele><time>2014-8-14T9:24:1Z</time></trkpt>
<trkpt lat="46.5937250108" lon="6.2958791479"><ele></ele><time>2014-8-14T9:24:4Z</time></trkpt>
<trkpt lat="46.5937145334" lon="6.2958928104"><ele></ele><time>2014-8-14T9:24:7Z</time></trkpt>
<trkpt lat="46.5937110968" lon="6.2958966661"><ele></ele><time>2014-8-14T9:24:10Z</time></trkpt>
<trkpt lat="46.5937099233" lon="6.2958953250"><ele></ele><time>2014-8-14T9:24:13Z</time></trkpt>
<trkpt lat="46.5937204845" lon="6.2958892062"><ele></ele><time>2014-8-14T9:24:16Z</time></trkpt>
<trkpt lat="46.5937279444" lon="6.2958735321"><ele></ele><time>2014-8-14T9:24:19Z</time></trkpt>
<trkpt lat="46.5937141143" lon="6.2958854344"><ele></ele><time>2014-8-14T9:24:22Z</time></trkpt>
<trkpt lat="46.5937183890" lon="6.2958856858"><ele></ele><time>2014-8-14T9:24:25Z</time></trkpt>
<trkpt lat="46.5937122703" lon="6.2958890386"><ele></ele><time>2014-8-14T9:24:28Z</time></trkpt>
<trkpt lat="46.5937086660" lon="6.2958940677"><ele></ele><time>2014-8-14T9:24:31Z</time></trkpt>
<trkpt lat="46.5937105939" lon="6.2958930619"><ele></ele><time>2014-8-14T9:24:34Z</time></trkpt>
<trkpt lat="46.5937043913" lon="6.2958871946"><ele></ele><time>2014-8-14T9:24:37Z</time></trkpt>
<trkpt lat="46.5937053133" lon="6.2958970014"><ele></ele><time>2014-8-14T9:24:40Z</time></trkpt>
<trkpt lat="46.5937029663" lon="6.2958877813"><ele></ele><time>2014-8-14T9:24:43Z</time></trkpt>
<trkpt lat="46.5937086660" lon="6.2958731968"><ele></ele><time>2014-8-14T9:24:46Z</time></trkpt>
<trkpt lat="46.5937049780" lon="6.2958788127"><ele></ele><time>2014-8-14T9:24:49Z</time></trkpt>
<trkpt lat="46.5937099233" lon="6.2958826683"><ele></ele><time>2014-8-14T9:24:52Z</time></trkpt>
<trkpt lat="46.5937086660" lon="6.2958843447"><ele></ele><time>2014-8-14T9:24:55Z</time></trkpt>
<trkpt lat="46.5937583707" lon="6.2958423514"><ele></ele><time>2014-8-14T9:24:58Z</time></trkpt>
<trkpt lat="46.5937992744" lon="6.2958018668"><ele></ele><time>2014-8-14T9:25:1Z</time></trkpt>
<trkpt lat="46.5937720332" lon="6.2958840095"><ele></ele><time>2014-8-14T9:25:4Z</time></trkpt>
<trkpt lat="46.5938074049" lon="6.2960358895"><ele></ele><time>2014-8-14T9:25:7Z</time></trkpt>
<trkpt lat="46.5938229114" lon="6.2960719317"><ele></ele><time>2014-8-14T9:25:10Z</time></trkpt>
<trkpt lat="46.5938619711" lon="6.2961135060"><ele></ele><time>2014-8-14T9:25:13Z</time></trkpt>
<trkpt lat="46.5939674992" lon="6.2962634582"><ele></ele><time>2014-8-14T9:25:16Z</time></trkpt>
<trkpt lat="46.5939825866" lon="6.2962897774"><ele></ele><time>2014-8-14T9:25:19Z</time></trkpt>
<trkpt lat="46.5939998534" lon="6.2963129114"><ele></ele><time>2014-8-14T9:25:22Z</time></trkpt>
<trkpt lat="46.5941435192" lon="6.2965408154"><ele></ele><time>2014-8-14T9:25:25Z</time></trkpt>
<trkpt lat="46.5942506399" lon="6.2966796197"><ele></ele><time>2014-8-14T9:25:28Z</time></trkpt>
<trkpt lat="46.5943719260" lon="6.2968895026"><ele></ele><time>2014-8-14T9:25:31Z</time></trkpt>
<trkpt lat="46.5944551583" lon="6.2970927637"><ele></ele><time>2014-8-14T9:25:34Z</time></trkpt>
<trkpt lat="46.5945039410" lon="6.2972198334"><ele></ele><time>2014-8-14T9:25:37Z</time></trkpt>
<trkpt lat="46.5946514625" lon="6.2974368408"><ele></ele><time>2014-8-14T9:25:40Z</time></trkpt>
<trkpt lat="46.5948248841" lon="6.2976717018"><ele></ele><time>2014-8-14T9:25:43Z</time></trkpt>
<trkpt lat="46.5948210284" lon="6.2976904772"><ele></ele><time>2014-8-14T9:25:46Z</time></trkpt>
<trkpt lat="46.5948086232" lon="6.2976772338"><ele></ele><time>2014-8-14T9:25:49Z</time></trkpt>
<trkpt lat="46.5948072821" lon="6.2976718694"><ele></ele><time>2014-8-14T9:25:52Z</time></trkpt>
<trkpt lat="46.5948049352" lon="6.2976758927"><ele></ele><time>2014-8-14T9:25:55Z</time></trkpt>
<trkpt lat="46.5947978105" lon="6.2976834364"><ele></ele><time>2014-8-14T9:25:58Z</time></trkpt>
<trkpt lat="46.5948009118" lon="6.2976830173"><ele></ele><time>2014-8-14T9:26:1Z</time></trkpt>
<trkpt lat="46.5949210245" lon="6.2978167087"><ele></ele><time>2014-8-14T9:26:4Z</time></trkpt>
<trkpt lat="46.5951035824" lon="6.2980940659"><ele></ele><time>2014-8-14T9:26:7Z</time></trkpt>
<trkpt lat="46.5952464938" lon="6.2983093131"><ele></ele><time>2014-8-14T9:26:10Z</time></trkpt>
<trkpt lat="46.5953561291" lon="6.2984676473"><ele></ele><time>2014-8-14T9:26:13Z</time></trkpt>
<trkpt lat="46.5953832865" lon="6.2985576689"><ele></ele><time>2014-8-14T9:26:16Z</time></trkpt>
<trkpt lat="46.5953466576" lon="6.2989268079"><ele></ele><time>2014-8-14T9:26:19Z</time></trkpt>
<trkpt lat="46.5953044966" lon="6.2992870621"><ele></ele><time>2014-8-14T9:26:22Z</time></trkpt>
<trkpt lat="46.5954169817" lon="6.2995304726"><ele></ele><time>2014-8-14T9:26:25Z</time></trkpt>
<trkpt lat="46.5955706220" lon="6.2997539341"><ele></ele><time>2014-8-14T9:26:28Z</time></trkpt>
<trkpt lat="46.5957821812" lon="6.3000063971"><ele></ele><time>2014-8-14T9:26:31Z</time></trkpt>
<trkpt lat="46.5960276034" lon="6.3002871070"><ele></ele><time>2014-8-14T9:26:34Z</time></trkpt>
<trkpt lat="46.5962958243" lon="6.3006024342"><ele></ele><time>2014-8-14T9:26:37Z</time></trkpt>
<trkpt lat="46.5965111554" lon="6.3010997325"><ele></ele><time>2014-8-14T9:26:40Z</time></trkpt>
<trkpt lat="46.5965420008" lon="6.3012005668"><ele></ele><time>2014-8-14T9:26:43Z</time></trkpt>
<trkpt lat="46.5965665597" lon="6.3015127927"><ele></ele><time>2014-8-14T9:26:46Z</time></trkpt>
<trkpt lat="46.5966114029" lon="6.3019419461"><ele></ele><time>2014-8-14T9:26:49Z</time></trkpt>
<trkpt lat="46.5967264026" lon="6.3022245839"><ele></ele><time>2014-8-14T9:26:52Z</time></trkpt>
<trkpt lat="46.5969035123" lon="6.3024551701"><ele></ele><time>2014-8-14T9:26:55Z</time></trkpt>
<trkpt lat="46.5970831364" lon="6.3027332816"><ele></ele><time>2014-8-14T9:26:58Z</time></trkpt>
<trkpt lat="46.5971528739" lon="6.3029500376"><ele></ele><time>2014-8-14T9:27:1Z</time></trkpt>
<trkpt lat="46.5971697215" lon="6.3030280732"><ele></ele><time>2014-8-14T9:27:4Z</time></trkpt>
<trkpt lat="46.5972828772" lon="6.3032483496"><ele></ele><time>2014-8-14T9:27:7Z</time></trkpt>
<trkpt lat="46.5972976293" lon="6.3033408020"><ele></ele><time>2014-8-14T9:27:10Z</time></trkpt>
<trkpt lat="46.5972930193" lon="6.3033396285"><ele></ele><time>2014-8-14T9:27:13Z</time></trkpt>
<trkpt lat="46.5972850565" lon="6.3033462502"><ele></ele><time>2014-8-14T9:27:16Z</time></trkpt>
<trkpt lat="46.5972778480" lon="6.3033651095"><ele></ele><time>2014-8-14T9:27:19Z</time></trkpt>
<trkpt lat="46.5972637665" lon="6.3033708092"><ele></ele><time>2014-8-14T9:27:22Z</time></trkpt>
<trkpt lat="46.5972650237" lon="6.3033656962"><ele></ele><time>2014-8-14T9:27:25Z</time></trkpt>
<trkpt lat="46.5972694661" lon="6.3033698872"><ele></ele><time>2014-8-14T9:27:28Z</time></trkpt>
<trkpt lat="46.5973371081" lon="6.3032938633"><ele></ele><time>2014-8-14T9:27:31Z</time></trkpt>
<trkpt lat="46.5974164847" lon="6.3033277262"><ele></ele><time>2014-8-14T9:27:34Z</time></trkpt>
<trkpt lat="46.5976078436" lon="6.3035074342"><ele></ele><time>2014-8-14T9:27:37Z</time></trkpt>
<trkpt lat="46.5977303032" lon="6.3036697917"><ele></ele><time>2014-8-14T9:27:40Z</time></trkpt>
<trkpt lat="46.5978549421" lon="6.3038782496"><ele></ele><time>2014-8-14T9:27:43Z</time></trkpt>
<trkpt lat="46.5980048105" lon="6.3041374180"><ele></ele><time>2014-8-14T9:27:46Z</time></trkpt>
<trkpt lat="46.5981804114" lon="6.3044190500"><ele></ele><time>2014-8-14T9:27:49Z</time></trkpt>
<trkpt lat="46.5983145218" lon="6.3046641368"><ele></ele><time>2014-8-14T9:27:52Z</time></trkpt>
<trkpt lat="46.5984847583" lon="6.3049544021"><ele></ele><time>2014-8-14T9:27:55Z</time></trkpt>
<trkpt lat="46.5986171924" lon="6.3052240480"><ele></ele><time>2014-8-14T9:27:58Z</time></trkpt>
<trkpt lat="46.5988362115" lon="6.3055884931"><ele></ele><time>2014-8-14T9:28:1Z</time></trkpt>
<trkpt lat="46.5990961343" lon="6.3058606535"><ele></ele><time>2014-8-14T9:28:4Z</time></trkpt>
<trkpt lat="46.5992892534" lon="6.3060818519"><ele></ele><time>2014-8-14T9:28:7Z</time></trkpt>
<trkpt lat="46.5995200071" lon="6.3063313812"><ele></ele><time>2014-8-14T9:28:10Z</time></trkpt>
<trkpt lat="46.5997393616" lon="6.3065439463"><ele></ele><time>2014-8-14T9:28:13Z</time></trkpt>
<trkpt lat="46.5999400243" lon="6.3067218103"><ele></ele><time>2014-8-14T9:28:16Z</time></trkpt>
<trkpt lat="46.6001674253" lon="6.3068633806"><ele></ele><time>2014-8-14T9:28:19Z</time></trkpt>
<trkpt lat="46.6003062297" lon="6.3069627900"><ele></ele><time>2014-8-14T9:28:22Z</time></trkpt>
<trkpt lat="46.6002934892" lon="6.3071130775"><ele></ele><time>2014-8-14T9:28:25Z</time></trkpt>
<trkpt lat="46.6003763024" lon="6.3074429054"><ele></ele><time>2014-8-14T9:28:28Z</time></trkpt>
<trkpt lat="46.6004280187" lon="6.3075338490"><ele></ele><time>2014-8-14T9:28:31Z</time></trkpt>
<trkpt lat="46.6004280187" lon="6.3075396325"><ele></ele><time>2014-8-14T9:28:34Z</time></trkpt>
<trkpt lat="46.6004503984" lon="6.3075665385"><ele></ele><time>2014-8-14T9:28:37Z</time></trkpt>
<trkpt lat="46.6004735325" lon="6.3075843081"><ele></ele><time>2014-8-14T9:28:40Z</time></trkpt>
<trkpt lat="46.6006235685" lon="6.3077708054"><ele></ele><time>2014-8-14T9:28:43Z</time></trkpt>
<trkpt lat="46.6008325294" lon="6.3081207499"><ele></ele><time>2014-8-14T9:28:46Z</time></trkpt>
<trkpt lat="46.6010270733" lon="6.3084907271"><ele></ele><time>2014-8-14T9:28:49Z</time></trkpt>
<trkpt lat="46.6012004111" lon="6.3089086488"><ele></ele><time>2014-8-14T9:28:52Z</time></trkpt>
<trkpt lat="46.6015406325" lon="6.3092635386"><ele></ele><time>2014-8-14T9:28:55Z</time></trkpt>
<trkpt lat="46.6018004715" lon="6.3095992338"><ele></ele><time>2014-8-14T9:28:58Z</time></trkpt>
<trkpt lat="46.6019845381" lon="6.3098498527"><ele></ele><time>2014-8-14T9:29:1Z</time></trkpt>
<trkpt lat="46.6021194030" lon="6.3100847136"><ele></ele><time>2014-8-14T9:29:4Z</time></trkpt>
<trkpt lat="46.6023421101" lon="6.3104798365"><ele></ele><time>2014-8-14T9:29:7Z</time></trkpt>
<trkpt lat="46.6025144421" lon="6.3106847741"><ele></ele><time>2014-8-14T9:29:10Z</time></trkpt>
<trkpt lat="46.6027182899" lon="6.3108375762"><ele></ele><time>2014-8-14T9:29:13Z</time></trkpt>
<trkpt lat="46.6028814018" lon="6.3109581079"><ele></ele><time>2014-8-14T9:29:16Z</time></trkpt>
<trkpt lat="46.6030151770" lon="6.3111311104"><ele></ele><time>2014-8-14T9:29:19Z</time></trkpt>
<trkpt lat="46.6030967329" lon="6.3112826552"><ele></ele><time>2014-8-14T9:29:22Z</time></trkpt>
<trkpt lat="46.6031440906" lon="6.3113800529"><ele></ele><time>2014-8-14T9:29:25Z</time></trkpt>
<trkpt lat="46.6033633612" lon="6.3116151653"><ele></ele><time>2014-8-14T9:29:28Z</time></trkpt>
<trkpt lat="46.6036918480" lon="6.3117569871"><ele></ele><time>2014-8-14T9:29:31Z</time></trkpt>
<trkpt lat="46.6039300617" lon="6.3119341806"><ele></ele><time>2014-8-14T9:29:34Z</time></trkpt>
<trkpt lat="46.6043342371" lon="6.3121811114"><ele></ele><time>2014-8-14T9:29:37Z</time></trkpt>
<trkpt lat="46.6045845207" lon="6.3125525136"><ele></ele><time>2014-8-14T9:29:40Z</time></trkpt>
<trkpt lat="46.6046190541" lon="6.3126153778"><ele></ele><time>2014-8-14T9:29:43Z</time></trkpt>
<trkpt lat="46.6048318706" lon="6.3127158768"><ele></ele><time>2014-8-14T9:29:46Z</time></trkpt>
<trkpt lat="46.6048568487" lon="6.3127124403"><ele></ele><time>2014-8-14T9:29:49Z</time></trkpt>
<trkpt lat="46.6050748620" lon="6.3126690220"><ele></ele><time>2014-8-14T9:29:52Z</time></trkpt>
<trkpt lat="46.6052987427" lon="6.3127422798"><ele></ele><time>2014-8-14T9:29:55Z</time></trkpt>
<trkpt lat="46.6055843141" lon="6.3132211380"><ele></ele><time>2014-8-14T9:29:58Z</time></trkpt>
<trkpt lat="46.6059096996" lon="6.3138237968"><ele></ele><time>2014-8-14T9:30:1Z</time></trkpt>
<trkpt lat="46.6059708036" lon="6.3139430713"><ele></ele><time>2014-8-14T9:30:4Z</time></trkpt>
<trkpt lat="46.6062421259" lon="6.3144588936"><ele></ele><time>2014-8-14T9:30:7Z</time></trkpt>
<trkpt lat="46.6063470673" lon="6.3146189041"><ele></ele><time>2014-8-14T9:30:10Z</time></trkpt>
<trkpt lat="46.6063572094" lon="6.3146320637"><ele></ele><time>2014-8-14T9:30:13Z</time></trkpt>
<trkpt lat="46.6063399427" lon="6.3146404456"><ele></ele><time>2014-8-14T9:30:16Z</time></trkpt>
<trkpt lat="46.6063062474" lon="6.3146189041"><ele></ele><time>2014-8-14T9:30:19Z</time></trkpt>
<trkpt lat="46.6062966082" lon="6.3146067504"><ele></ele><time>2014-8-14T9:30:22Z</time></trkpt>
<trkpt lat="46.6062907409" lon="6.3146216702"><ele></ele><time>2014-8-14T9:30:25Z</time></trkpt>
<trkpt lat="46.6062640864" lon="6.3146328181"><ele></ele><time>2014-8-14T9:30:28Z</time></trkpt>
<trkpt lat="46.6062478255" lon="6.3146541920"><ele></ele><time>2014-8-14T9:30:31Z</time></trkpt>
<trkpt lat="46.6062385216" lon="6.3146702852"><ele></ele><time>2014-8-14T9:30:34Z</time></trkpt>
<trkpt lat="46.6062362585" lon="6.3146516774"><ele></ele><time>2014-8-14T9:30:37Z</time></trkpt>
<trkpt lat="46.6062437184" lon="6.3146541081"><ele></ele><time>2014-8-14T9:30:40Z</time></trkpt>
<trkpt lat="46.6062637512" lon="6.3146335725"><ele></ele><time>2014-8-14T9:30:43Z</time></trkpt>
<trkpt lat="46.6063930001" lon="6.3148745522"><ele></ele><time>2014-8-14T9:30:46Z</time></trkpt>
<trkpt lat="46.6065578721" lon="6.3152359799"><ele></ele><time>2014-8-14T9:30:49Z</time></trkpt>
<trkpt lat="46.6067183018" lon="6.3156604394"><ele></ele><time>2014-8-14T9:30:52Z</time></trkpt>
<trkpt lat="46.6068602912" lon="6.3159181830"><ele></ele><time>2014-8-14T9:30:55Z</time></trkpt>
<trkpt lat="46.6070124228" lon="6.3161834702"><ele></ele><time>2014-8-14T9:30:58Z</time></trkpt>
<trkpt lat="46.6072710883" lon="6.3165104482"><ele></ele><time>2014-8-14T9:31:1Z</time></trkpt>
<trkpt lat="46.6075285804" lon="6.3169834390"><ele></ele><time>2014-8-14T9:31:4Z</time></trkpt>
<trkpt lat="46.6078713164" lon="6.3175462000"><ele></ele><time>2014-8-14T9:31:7Z</time></trkpt>
<trkpt lat="46.6080583166" lon="6.3179731742"><ele></ele><time>2014-8-14T9:31:10Z</time></trkpt>
<trkpt lat="46.6082241945" lon="6.3182123937"><ele></ele><time>2014-8-14T9:31:13Z</time></trkpt>
<trkpt lat="46.6084593907" lon="6.3184466679"><ele></ele><time>2014-8-14T9:31:16Z</time></trkpt>
<trkpt lat="46.6084941756" lon="6.3185248710"><ele></ele><time>2014-8-14T9:31:19Z</time></trkpt>
<trkpt lat="46.6084969416" lon="6.3185373601"><ele></ele><time>2014-8-14T9:31:22Z</time></trkpt>
<trkpt lat="46.6084925830" lon="6.3185331691"><ele></ele><time>2014-8-14T9:31:25Z</time></trkpt>
<trkpt lat="46.6085393541" lon="6.3186094444"><ele></ele><time>2014-8-14T9:31:28Z</time></trkpt>
<trkpt lat="46.6087248456" lon="6.3189009670"><ele></ele><time>2014-8-14T9:31:31Z</time></trkpt>
<trkpt lat="46.6087897215" lon="6.3189668488"><ele></ele><time>2014-8-14T9:31:34Z</time></trkpt>
<trkpt lat="46.6091791447" lon="6.3190647494"><ele></ele><time>2014-8-14T9:31:37Z</time></trkpt>
<trkpt lat="46.6094047017" lon="6.3189900666"><ele></ele><time>2014-8-14T9:31:40Z</time></trkpt>
<trkpt lat="46.6096929554" lon="6.3191696070"><ele></ele><time>2014-8-14T9:31:43Z</time></trkpt>
<trkpt lat="46.6098296642" lon="6.3195146061"><ele></ele><time>2014-8-14T9:31:46Z</time></trkpt>
<trkpt lat="46.6099864896" lon="6.3198132534"><ele></ele><time>2014-8-14T9:31:49Z</time></trkpt>
<trkpt lat="46.6103385296" lon="6.3202134892"><ele></ele><time>2014-8-14T9:31:52Z</time></trkpt>
<trkpt lat="46.6104077641" lon="6.3203050196"><ele></ele><time>2014-8-14T9:31:55Z</time></trkpt>
<trkpt lat="46.6105108615" lon="6.3205238711"><ele></ele><time>2014-8-14T9:31:58Z</time></trkpt>
<trkpt lat="46.6108677629" lon="6.3210210856"><ele></ele><time>2014-8-14T9:32:1Z</time></trkpt>
<trkpt lat="46.6109013744" lon="6.3210646715"><ele></ele><time>2014-8-14T9:32:4Z</time></trkpt>
<trkpt lat="46.6110481415" lon="6.3212815113"><ele></ele><time>2014-8-14T9:32:7Z</time></trkpt>
<trkpt lat="46.6111372411" lon="6.3214218244"><ele></ele><time>2014-8-14T9:32:10Z</time></trkpt>
<trkpt lat="46.6111664940" lon="6.3217944000"><ele></ele><time>2014-8-14T9:32:13Z</time></trkpt>
<trkpt lat="46.6109991074" lon="6.3218648918"><ele></ele><time>2014-8-14T9:32:16Z</time></trkpt>
<trkpt lat="46.6109297052" lon="6.3217997644"><ele></ele><time>2014-8-14T9:32:19Z</time></trkpt>
<trkpt lat="46.6108649131" lon="6.3217178732"><ele></ele><time>2014-8-14T9:32:22Z</time></trkpt>
<trkpt lat="46.6107977740" lon="6.3216387480"><ele></ele><time>2014-8-14T9:32:25Z</time></trkpt>
<trkpt lat="46.6105039045" lon="6.3216216490"><ele></ele><time>2014-8-14T9:32:28Z</time></trkpt>
<trkpt lat="46.6104054172" lon="6.3217091560"><ele></ele><time>2014-8-14T9:32:31Z</time></trkpt>
<trkpt lat="46.6103207599" lon="6.3219140936"><ele></ele><time>2014-8-14T9:32:34Z</time></trkpt>
<trkpt lat="46.6102510225" lon="6.3224392198"><ele></ele><time>2014-8-14T9:32:37Z</time></trkpt>
<trkpt lat="46.6103512701" lon="6.3228262123"><ele></ele><time>2014-8-14T9:32:40Z</time></trkpt>
<trkpt lat="46.6104575526" lon="6.3229889888"><ele></ele><time>2014-8-14T9:32:43Z</time></trkpt>
<trkpt lat="46.6105471551" lon="6.3231599797"><ele></ele><time>2014-8-14T9:32:46Z</time></trkpt>
<trkpt lat="46.6109452117" lon="6.3237117603"><ele></ele><time>2014-8-14T9:32:49Z</time></trkpt>
<trkpt lat="46.6111198068" lon="6.3238540012"><ele></ele><time>2014-8-14T9:32:52Z</time></trkpt>
<trkpt lat="46.6112700105" lon="6.3242246490"><ele></ele><time>2014-8-14T9:32:55Z</time></trkpt>
<trkpt lat="46.6113060527" lon="6.3245337736"><ele></ele><time>2014-8-14T9:32:58Z</time></trkpt>
<trkpt lat="46.6112912167" lon="6.3249937724"><ele></ele><time>2014-8-14T9:33:1Z</time></trkpt>
<trkpt lat="46.6113714315" lon="6.3256138656"><ele></ele><time>2014-8-14T9:33:4Z</time></trkpt>
<trkpt lat="46.6118042730" lon="6.3267538045"><ele></ele><time>2014-8-14T9:33:7Z</time></trkpt>
<trkpt lat="46.6118431650" lon="6.3268643618"><ele></ele><time>2014-8-14T9:33:10Z</time></trkpt>
<trkpt lat="46.6120908502" lon="6.3273105305"><ele></ele><time>2014-8-14T9:33:13Z</time></trkpt>
<trkpt lat="46.6125787608" lon="6.3277221657"><ele></ele><time>2014-8-14T9:33:16Z</time></trkpt>
<trkpt lat="46.6133198049" lon="6.3281771354"><ele></ele><time>2014-8-14T9:33:19Z</time></trkpt>
<trkpt lat="46.6140026785" lon="6.3285109866"><ele></ele><time>2014-8-14T9:33:22Z</time></trkpt>
<trkpt lat="46.6144356038" lon="6.3290063571"><ele></ele><time>2014-8-14T9:33:25Z</time></trkpt>
<trkpt lat="46.6146790981" lon="6.3295569643"><ele></ele><time>2014-8-14T9:33:28Z</time></trkpt>
<trkpt lat="46.6150615644" lon="6.3300955016"><ele></ele><time>2014-8-14T9:33:31Z</time></trkpt>
<trkpt lat="46.6153032146" lon="6.3305175304"><ele></ele><time>2014-8-14T9:33:34Z</time></trkpt>
<trkpt lat="46.6158990003" lon="6.3315462414"><ele></ele><time>2014-8-14T9:33:37Z</time></trkpt>
<trkpt lat="46.6165305767" lon="6.3321529236"><ele></ele><time>2014-8-14T9:33:40Z</time></trkpt>
<trkpt lat="46.6166907549" lon="6.3322878722"><ele></ele><time>2014-8-14T9:33:43Z</time></trkpt>
<trkpt lat="46.6171726305" lon="6.3323976751"><ele></ele><time>2014-8-14T9:33:46Z</time></trkpt>
<trkpt lat="46.6173835192" lon="6.3323008642"><ele></ele><time>2014-8-14T9:33:49Z</time></trkpt>
<trkpt lat="46.6178101581" lon="6.3321258500"><ele></ele><time>2014-8-14T9:33:52Z</time></trkpt>
<trkpt lat="46.6179446038" lon="6.3321273588"><ele></ele><time>2014-8-14T9:33:55Z</time></trkpt>
<trkpt lat="46.6183569096" lon="6.3326068036"><ele></ele><time>2014-8-14T9:33:58Z</time></trkpt>
<trkpt lat="46.6186507791" lon="6.3330417406"><ele></ele><time>2014-8-14T9:34:1Z</time></trkpt>
<trkpt lat="46.6187497694" lon="6.3334794436"><ele></ele><time>2014-8-14T9:34:4Z</time></trkpt>
<trkpt lat="46.6189478338" lon="6.3339539431"><ele></ele><time>2014-8-14T9:34:7Z</time></trkpt>
<trkpt lat="46.6193541884" lon="6.3343539275"><ele></ele><time>2014-8-14T9:34:10Z</time></trkpt>
<trkpt lat="46.6194586270" lon="6.3345645647"><ele></ele><time>2014-8-14T9:34:13Z</time></trkpt>
<trkpt lat="46.6195022129" lon="6.3346866891"><ele></ele><time>2014-8-14T9:34:16Z</time></trkpt>
<trkpt lat="46.6198421828" lon="6.3350616954"><ele></ele><time>2014-8-14T9:34:19Z</time></trkpt>
<trkpt lat="46.6201073863" lon="6.3355523720"><ele></ele><time>2014-8-14T9:34:22Z</time></trkpt>
<trkpt lat="46.6201916244" lon="6.3357262127"><ele></ele><time>2014-8-14T9:34:25Z</time></trkpt>
<trkpt lat="46.6205743421" lon="6.3362922426"><ele></ele><time>2014-8-14T9:34:28Z</time></trkpt>
<trkpt lat="46.6207690537" lon="6.3369452767"><ele></ele><time>2014-8-14T9:34:31Z</time></trkpt>
<trkpt lat="46.6209031641" lon="6.3372851629"><ele></ele><time>2014-8-14T9:34:34Z</time></trkpt>
<trkpt lat="46.6216323059" lon="6.3380793482"><ele></ele><time>2014-8-14T9:34:37Z</time></trkpt>
<trkpt lat="46.6222189553" lon="6.3389591966"><ele></ele><time>2014-8-14T9:34:40Z</time></trkpt>
<trkpt lat="46.6223328654" lon="6.3391555008"><ele></ele><time>2014-8-14T9:34:43Z</time></trkpt>
<trkpt lat="46.6225617751" lon="6.3398399670"><ele></ele><time>2014-8-14T9:34:46Z</time></trkpt>
<trkpt lat="46.6226393078" lon="6.3400913402"><ele></ele><time>2014-8-14T9:34:49Z</time></trkpt>
<trkpt lat="46.6228179261" lon="6.3403546158"><ele></ele><time>2014-8-14T9:34:52Z</time></trkpt>
<trkpt lat="46.6229232866" lon="6.3404302206"><ele></ele><time>2014-8-14T9:34:55Z</time></trkpt>
<trkpt lat="46.6234926693" lon="6.3405189011"><ele></ele><time>2014-8-14T9:34:58Z</time></trkpt>
<trkpt lat="46.6235790029" lon="6.3405391015"><ele></ele><time>2014-8-14T9:35:1Z</time></trkpt>
<trkpt lat="46.6241630539" lon="6.3409369905"><ele></ele><time>2014-8-14T9:35:4Z</time></trkpt>
<trkpt lat="46.6244518943" lon="6.3413197082"><ele></ele><time>2014-8-14T9:35:7Z</time></trkpt>
<trkpt lat="46.6248538066" lon="6.3419637736"><ele></ele><time>2014-8-14T9:35:10Z</time></trkpt>
<trkpt lat="46.6249251366" lon="6.3420960400"><ele></ele><time>2014-8-14T9:35:13Z</time></trkpt>
<trkpt lat="46.6250281502" lon="6.3424589764"><ele></ele><time>2014-8-14T9:35:16Z</time></trkpt>
<trkpt lat="46.6251459159" lon="6.3428385090"><ele></ele><time>2014-8-14T9:35:19Z</time></trkpt>
<trkpt lat="46.6253384482" lon="6.3435420021"><ele></ele><time>2014-8-14T9:35:22Z</time></trkpt>
<trkpt lat="46.6254345048" lon="6.3441782724"><ele></ele><time>2014-8-14T9:35:25Z</time></trkpt>
<trkpt lat="46.6255376860" lon="6.3446935918"><ele></ele><time>2014-8-14T9:35:28Z</time></trkpt>
<trkpt lat="46.6255674418" lon="6.3447674364"><ele></ele><time>2014-8-14T9:35:31Z</time></trkpt>
<trkpt lat="46.6256818548" lon="6.3448777422"><ele></ele><time>2014-8-14T9:35:34Z</time></trkpt>
<trkpt lat="46.6260374151" lon="6.3450432848"><ele></ele><time>2014-8-14T9:35:37Z</time></trkpt>
<trkpt lat="46.6263203043" lon="6.3452913053"><ele></ele><time>2014-8-14T9:35:40Z</time></trkpt>
<trkpt lat="46.6268168483" lon="6.3458251487"><ele></ele><time>2014-8-14T9:35:43Z</time></trkpt>
<trkpt lat="46.6273962054" lon="6.3464906719"><ele></ele><time>2014-8-14T9:35:46Z</time></trkpt>
<trkpt lat="46.6277131252" lon="6.3468234334"><ele></ele><time>2014-8-14T9:35:49Z</time></trkpt>
<trkpt lat="46.6278648376" lon="6.3470584620"><ele></ele><time>2014-8-14T9:35:52Z</time></trkpt>
<trkpt lat="46.6280443780" lon="6.3477653917"><ele></ele><time>2014-8-14T9:35:55Z</time></trkpt>
<trkpt lat="46.6280882992" lon="6.3478896953"><ele></ele><time>2014-8-14T9:35:58Z</time></trkpt>
<trkpt lat="46.6283756308" lon="6.3481750991"><ele></ele><time>2014-8-14T9:36:1Z</time></trkpt>
<trkpt lat="46.6287104879" lon="6.3483512867"><ele></ele><time>2014-8-14T9:36:4Z</time></trkpt>
<trkpt lat="46.6289497074" lon="6.3484119717"><ele></ele><time>2014-8-14T9:36:7Z</time></trkpt>
<trkpt lat="46.6289803013" lon="6.3484211918"><ele></ele><time>2014-8-14T9:36:10Z</time></trkpt>
<trkpt lat="46.6290420759" lon="6.3484408893"><ele></ele><time>2014-8-14T9:36:13Z</time></trkpt>
<trkpt lat="46.6291642003" lon="6.3484526239"><ele></ele><time>2014-8-14T9:36:16Z</time></trkpt>
<trkpt lat="46.6293224506" lon="6.3485084474"><ele></ele><time>2014-8-14T9:36:19Z</time></trkpt>
<trkpt lat="46.6295830440" lon="6.3486476708"><ele></ele><time>2014-8-14T9:36:22Z</time></trkpt>
<trkpt lat="46.6299104411" lon="6.3487427216"><ele></ele><time>2014-8-14T9:36:25Z</time></trkpt>
<trkpt lat="46.6302417777" lon="6.3488232717"><ele></ele><time>2014-8-14T9:36:28Z</time></trkpt>
<trkpt lat="46.6303489823" lon="6.3488769997"><ele></ele><time>2014-8-14T9:36:31Z</time></trkpt>
<trkpt lat="46.6304062307" lon="6.3487929292"><ele></ele><time>2014-8-14T9:36:34Z</time></trkpt>
<trkpt lat="46.6304028779" lon="6.3488027360"><ele></ele><time>2014-8-14T9:36:37Z</time></trkpt>
<trkpt lat="46.6303933226" lon="6.3488049991"><ele></ele><time>2014-8-14T9:36:40Z</time></trkpt>
<trkpt lat="46.6303917300" lon="6.3488022331"><ele></ele><time>2014-8-14T9:36:43Z</time></trkpt>
<trkpt lat="46.6303914785" lon="6.3488017302"><ele></ele><time>2014-8-14T9:36:46Z</time></trkpt>
<trkpt lat="46.6303891316" lon="6.3487930130"><ele></ele><time>2014-8-14T9:36:49Z</time></trkpt>
<trkpt lat="46.6303981002" lon="6.3487961143"><ele></ele><time>2014-8-14T9:36:52Z</time></trkpt>
<trkpt lat="46.6304004472" lon="6.3488487527"><ele></ele><time>2014-8-14T9:36:55Z</time></trkpt>
<trkpt lat="46.6306304466" lon="6.3487593178"><ele></ele><time>2014-8-14T9:36:58Z</time></trkpt>
<trkpt lat="46.6310788784" lon="6.3488922548"><ele></ele><time>2014-8-14T9:37:1Z</time></trkpt>
<trkpt lat="46.6316024959" lon="6.3491927460"><ele></ele><time>2014-8-14T9:37:4Z</time></trkpt>
<trkpt lat="46.6318822000" lon="6.3494297024"><ele></ele><time>2014-8-14T9:37:7Z</time></trkpt>
<trkpt lat="46.6320166457" lon="6.3497935608"><ele></ele><time>2014-8-14T9:37:10Z</time></trkpt>
<trkpt lat="46.6323791631" lon="6.3504181802"><ele></ele><time>2014-8-14T9:37:13Z</time></trkpt>
<trkpt lat="46.6325543448" lon="6.3505893387"><ele></ele><time>2014-8-14T9:37:16Z</time></trkpt>
<trkpt lat="46.6331795510" lon="6.3508208469"><ele></ele><time>2014-8-14T9:37:19Z</time></trkpt>
<trkpt lat="46.6336420644" lon="6.3511711266"><ele></ele><time>2014-8-14T9:37:22Z</time></trkpt>
<trkpt lat="46.6340480838" lon="6.3516436983"><ele></ele><time>2014-8-14T9:37:25Z</time></trkpt>
<trkpt lat="46.6341319028" lon="6.3517498132"><ele></ele><time>2014-8-14T9:37:28Z</time></trkpt>
<trkpt lat="46.6342443042" lon="6.3519140985"><ele></ele><time>2014-8-14T9:37:31Z</time></trkpt>
<trkpt lat="46.6346986033" lon="6.3524999097"><ele></ele><time>2014-8-14T9:37:34Z</time></trkpt>
<trkpt lat="46.6352463607" lon="6.3527618442"><ele></ele><time>2014-8-14T9:37:37Z</time></trkpt>
<trkpt lat="46.6357175913" lon="6.3529681228"><ele></ele><time>2014-8-14T9:37:40Z</time></trkpt>
<trkpt lat="46.6360328346" lon="6.3528413046"><ele></ele><time>2014-8-14T9:37:43Z</time></trkpt>
<trkpt lat="46.6360998061" lon="6.3527346030"><ele></ele><time>2014-8-14T9:37:46Z</time></trkpt>
<trkpt lat="46.6362075973" lon="6.3526103832"><ele></ele><time>2014-8-14T9:37:49Z</time></trkpt>
<trkpt lat="46.6364226770" lon="6.3525271509"><ele></ele><time>2014-8-14T9:37:52Z</time></trkpt>
<trkpt lat="46.6367411893" lon="6.3525170926"><ele></ele><time>2014-8-14T9:37:55Z</time></trkpt>
<trkpt lat="46.6370088235" lon="6.3526015822"><ele></ele><time>2014-8-14T9:37:58Z</time></trkpt>
<trkpt lat="46.6372716799" lon="6.3525984809"><ele></ele><time>2014-8-14T9:38:1Z</time></trkpt>
<trkpt lat="46.6374670621" lon="6.3525930326"><ele></ele><time>2014-8-14T9:38:4Z</time></trkpt>
<trkpt lat="46.6381030809" lon="6.3529531192"><ele></ele><time>2014-8-14T9:38:7Z</time></trkpt>
<trkpt lat="46.6383153107" lon="6.3531184103"><ele></ele><time>2014-8-14T9:38:10Z</time></trkpt>
<trkpt lat="46.6387335677" lon="6.3532784209"><ele></ele><time>2014-8-14T9:38:13Z</time></trkpt>
<trkpt lat="46.6390651558" lon="6.3532614894"><ele></ele><time>2014-8-14T9:38:16Z</time></trkpt>
<trkpt lat="46.6396504641" lon="6.3536237553"><ele></ele><time>2014-8-14T9:38:19Z</time></trkpt>
<trkpt lat="46.6399274860" lon="6.3541985024"><ele></ele><time>2014-8-14T9:38:22Z</time></trkpt>
<trkpt lat="46.6400010791" lon="6.3542750292"><ele></ele><time>2014-8-14T9:38:25Z</time></trkpt>
<trkpt lat="46.6403992195" lon="6.3544442598"><ele></ele><time>2014-8-14T9:38:28Z</time></trkpt>
<trkpt lat="46.6407264490" lon="6.3545193616"><ele></ele><time>2014-8-14T9:38:31Z</time></trkpt>
<trkpt lat="46.6409537662" lon="6.3546261471"><ele></ele><time>2014-8-14T9:38:34Z</time></trkpt>
<trkpt lat="46.6411636490" lon="6.3546975609"><ele></ele><time>2014-8-14T9:38:37Z</time></trkpt>
<trkpt lat="46.6414502263" lon="6.3547557313"><ele></ele><time>2014-8-14T9:38:40Z</time></trkpt>
<trkpt lat="46.6421456728" lon="6.3546323497"><ele></ele><time>2014-8-14T9:38:43Z</time></trkpt>
<trkpt lat="46.6428940091" lon="6.3547171745"><ele></ele><time>2014-8-14T9:38:46Z</time></trkpt>
<trkpt lat="46.6432801634" lon="6.3547621854"><ele></ele><time>2014-8-14T9:38:49Z</time></trkpt>
<trkpt lat="46.6440411564" lon="6.3553497568"><ele></ele><time>2014-8-14T9:38:52Z</time></trkpt>
<trkpt lat="46.6448329110" lon="6.3559452910"><ele></ele><time>2014-8-14T9:38:55Z</time></trkpt>
<trkpt lat="46.6453692690" lon="6.3562459499"><ele></ele><time>2014-8-14T9:38:58Z</time></trkpt>
<trkpt lat="46.6458594427" lon="6.3568932004"><ele></ele><time>2014-8-14T9:39:1Z</time></trkpt>
<trkpt lat="46.6462662164" lon="6.3570014108"><ele></ele><time>2014-8-14T9:39:4Z</time></trkpt>
<trkpt lat="46.6464919411" lon="6.3569552265"><ele></ele><time>2014-8-14T9:39:7Z</time></trkpt>
<trkpt lat="46.6469112877" lon="6.3571044244"><ele></ele><time>2014-8-14T9:39:10Z</time></trkpt>
<trkpt lat="46.6469039954" lon="6.3573412132"><ele></ele><time>2014-8-14T9:39:13Z</time></trkpt>
<trkpt lat="46.6468620859" lon="6.3574822806"><ele></ele><time>2014-8-14T9:39:16Z</time></trkpt>
<trkpt lat="46.6466002353" lon="6.3576076739"><ele></ele><time>2014-8-14T9:39:19Z</time></trkpt>
<trkpt lat="46.6464678850" lon="6.3577153813"><ele></ele><time>2014-8-14T9:39:22Z</time></trkpt>
<trkpt lat="46.6461986583" lon="6.3579649944"><ele></ele><time>2014-8-14T9:39:25Z</time></trkpt>
<trkpt lat="46.6461833194" lon="6.3581584487"><ele></ele><time>2014-8-14T9:39:28Z</time></trkpt>
<trkpt lat="46.6463649552" lon="6.3582608756"><ele></ele><time>2014-8-14T9:39:31Z</time></trkpt>
<trkpt lat="46.6463951301" lon="6.3583226502"><ele></ele><time>2014-8-14T9:39:34Z</time></trkpt>
<trkpt lat="46.6465779394" lon="6.3589073718"><ele></ele><time>2014-8-14T9:39:37Z</time></trkpt>
<trkpt lat="46.6465791129" lon="6.3589682244"><ele></ele><time>2014-8-14T9:39:40Z</time></trkpt>
<trkpt lat="46.6465983074" lon="6.3591642771"><ele></ele><time>2014-8-14T9:39:43Z</time></trkpt>
<trkpt lat="46.6466678772" lon="6.3595727272"><ele></ele><time>2014-8-14T9:39:46Z</time></trkpt>
<trkpt lat="46.6466824617" lon="6.3596339989"><ele></ele><time>2014-8-14T9:39:49Z</time></trkpt>
<trkpt lat="46.6466804501" lon="6.3596412074"><ele></ele><time>2014-8-14T9:39:52Z</time></trkpt>
<trkpt lat="46.6466675419" lon="6.3598696142"><ele></ele><time>2014-8-14T9:39:55Z</time></trkpt>
<trkpt lat="46.6466845572" lon="6.3601446245"><ele></ele><time>2014-8-14T9:39:58Z</time></trkpt>
<trkpt lat="46.6467472538" lon="6.3604474626"><ele></ele><time>2014-8-14T9:40:1Z</time></trkpt>
<trkpt lat="46.6468133032" lon="6.3606411684"><ele></ele><time>2014-8-14T9:40:4Z</time></trkpt>
<trkpt lat="46.6469772533" lon="6.3610093016"><ele></ele><time>2014-8-14T9:40:7Z</time></trkpt>
<trkpt lat="46.6470932588" lon="6.3612661231"><ele></ele><time>2014-8-14T9:40:10Z</time></trkpt>
<trkpt lat="46.6471621580" lon="6.3615282252"><ele></ele><time>2014-8-14T9:40:13Z</time></trkpt>
<trkpt lat="46.6472177301" lon="6.3617561292"><ele></ele><time>2014-8-14T9:40:16Z</time></trkpt>
<trkpt lat="46.6472747270" lon="6.3619826920"><ele></ele><time>2014-8-14T9:40:19Z</time></trkpt>
<trkpt lat="46.6473019682" lon="6.3621111028"><ele></ele><time>2014-8-14T9:40:22Z</time></trkpt>
<trkpt lat="46.6474535130" lon="6.3624950778"><ele></ele><time>2014-8-14T9:40:25Z</time></trkpt>
<trkpt lat="46.6475386731" lon="6.3630787935"><ele></ele><time>2014-8-14T9:40:28Z</time></trkpt>
<trkpt lat="46.6476208158" lon="6.3635105453"><ele></ele><time>2014-8-14T9:40:31Z</time></trkpt>
<trkpt lat="46.6477919742" lon="6.3639071770"><ele></ele><time>2014-8-14T9:40:34Z</time></trkpt>
<trkpt lat="46.6480450239" lon="6.3642535172"><ele></ele><time>2014-8-14T9:40:37Z</time></trkpt>
<trkpt lat="46.6482611932" lon="6.3644566946"><ele></ele><time>2014-8-14T9:40:40Z</time></trkpt>
<trkpt lat="46.6485718265" lon="6.3648958225"><ele></ele><time>2014-8-14T9:40:43Z</time></trkpt>
<trkpt lat="46.6488944460" lon="6.3652927894"><ele></ele><time>2014-8-14T9:40:46Z</time></trkpt>
<trkpt lat="46.6491973680" lon="6.3655209448"><ele></ele><time>2014-8-14T9:40:49Z</time></trkpt>
<trkpt lat="46.6492552031" lon="6.3655913528"><ele></ele><time>2014-8-14T9:40:52Z</time></trkpt>
<trkpt lat="46.6492675245" lon="6.3656043448"><ele></ele><time>2014-8-14T9:40:55Z</time></trkpt>
<trkpt lat="46.6492795944" lon="6.3656117208"><ele></ele><time>2014-8-14T9:40:58Z</time></trkpt>
<trkpt lat="46.6493075900" lon="6.3656207733"><ele></ele><time>2014-8-14T9:41:1Z</time></trkpt>
<trkpt lat="46.6493310593" lon="6.3656197675"><ele></ele><time>2014-8-14T9:41:4Z</time></trkpt>
<trkpt lat="46.6493468173" lon="6.3656222820"><ele></ele><time>2014-8-14T9:41:7Z</time></trkpt>
<trkpt lat="46.6493497510" lon="6.3656309992"><ele></ele><time>2014-8-14T9:41:10Z</time></trkpt>
<trkpt lat="46.6493628267" lon="6.3656325918"><ele></ele><time>2014-8-14T9:41:13Z</time></trkpt>
<trkpt lat="46.6493812669" lon="6.3656313345"><ele></ele><time>2014-8-14T9:41:16Z</time></trkpt>
<trkpt lat="46.6493793391" lon="6.3656294066"><ele></ele><time>2014-8-14T9:41:19Z</time></trkpt>
<trkpt lat="46.6493877210" lon="6.3656256348"><ele></ele><time>2014-8-14T9:41:22Z</time></trkpt>
<trkpt lat="46.6494385991" lon="6.3656428177"><ele></ele><time>2014-8-14T9:41:25Z</time></trkpt>
<trkpt lat="46.6496512480" lon="6.3657540455"><ele></ele><time>2014-8-14T9:41:28Z</time></trkpt>
<trkpt lat="46.6497841850" lon="6.3656185940"><ele></ele><time>2014-8-14T9:41:31Z</time></trkpt>
<trkpt lat="46.6497602966" lon="6.3655244652"><ele></ele><time>2014-8-14T9:41:34Z</time></trkpt>
<trkpt lat="46.6497521661" lon="6.3655249681"><ele></ele><time>2014-8-14T9:41:37Z</time></trkpt>
</trkseg></trk></gpx>